Observation data for Throckmorton on 05/12/2018      Previous  Date  Next       Current Mesonet Observations  Soil Data  Daily Summary Page  Observations in Plain Language
KTH1 120500Z 15007KT 23/14 A2984 RMK A01 T02340144  RH  057%=      5-min Rain = 0
KTH1 120501Z 15006KT 23/14 A2984 RMK A01 T02340144  RH  057%=      5-min Rain = 0
KTH1 120502Z 15007KT 23/14 A2984 RMK A01 T02330144  RH  057%=      5-min Rain = 0
KTH1 120503Z 15008G13KT 23/14 A2984 RMK A01 T02330144  RH  057%=      5-min Rain = 0
KTH1 120504Z 15008KT 23/14 A2984 RMK A01 T02320144  RH  057%=      5-min Rain = 0
KTH1 120505Z 15009G14KT 23/14 A2984 RMK A01 T02320143  RH  057%=      5-min Rain = 0
KTH1 120506Z 16008KT 23/14 A2984 RMK A01 T02330143  RH  057%=      5-min Rain = 0
KTH1 120507Z 15008G13KT 23/14 A2984 RMK A01 T02330144  RH  057%=      5-min Rain = 0
KTH1 120508Z 15009KT 23/14 A2984 RMK A01 T02330144  RH  057%=      5-min Rain = 0
KTH1 120509Z 16010KT 23/14 A2984 RMK A01 T02330143  RH  057%=      5-min Rain = 0
KTH1 120510Z 16009KT 23/14 A2984 RMK A01 T02330143  RH  057%=      5-min Rain = 0
KTH1 120511Z 16008KT 23/14 A2984 RMK A01 T02330143  RH  057%=      5-min Rain = 0
KTH1 120512Z 15008KT 23/14 A2984 RMK A01 T02340144  RH  057%=      5-min Rain = 0
KTH1 120513Z 16009KT 23/14 A2984 RMK A01 T02330144  RH  057%=      5-min Rain = 0
KTH1 120514Z 15007KT 23/14 A2985 RMK A01 T02330143  RH  057%=      5-min Rain = 0
KTH1 120515Z 16008KT 23/14 A2984 RMK A01 T02330144  RH  057%=      5-min Rain = 0
KTH1 120516Z 15007KT 23/14 A2984 RMK A01 T02330144  RH  057%=      5-min Rain = 0
KTH1 120517Z 15008KT 23/14 A2984 RMK A01 T02330144  RH  057%=      5-min Rain = 0
KTH1 120518Z 15010KT 23/14 A2984 RMK A01 T02330144  RH  057%=      5-min Rain = 0
KTH1 120519Z 15009G14KT 23/14 A2984 RMK A01 T02330143  RH  057%=      5-min Rain = 0
KTH1 120520Z 16008KT 23/14 A2984 RMK A01 T02320143  RH  057%=      5-min Rain = 0
KTH1 120521Z 15009KT 23/14 A2984 RMK A01 T02320143  RH  057%=      5-min Rain = 0
KTH1 120522Z 15009KT 23/14 A2984 RMK A01 T02330144  RH  057%=      5-min Rain = 0
KTH1 120523Z 16009KT 23/14 A2984 RMK A01 T02320143  RH  057%=      5-min Rain = 0
KTH1 120524Z 15008KT 23/14 A2984 RMK A01 T02320143  RH  057%=      5-min Rain = 0
KTH1 120525Z 16008KT 23/14 A2984 RMK A01 T02320144  RH  057%=      5-min Rain = 0
KTH1 120526Z 15007KT 23/14 A2984 RMK A01 T02320143  RH  057%=      5-min Rain = 0
KTH1 120527Z 16009KT 23/14 A2984 RMK A01 T02320143  RH  057%=      5-min Rain = 0
KTH1 120528Z 15007KT 23/14 A2984 RMK A01 T02310143  RH  058%=      5-min Rain = 0
KTH1 120529Z 15009KT 23/14 A2984 RMK A01 T02320144  RH  058%=      5-min Rain = 0
KTH1 120530Z 15007KT 23/14 A2984 RMK A01 T02320143  RH  058%=      5-min Rain = 0
KTH1 120531Z 15009KT 23/14 A2984 RMK A01 T02320143  RH  058%=      5-min Rain = 0
KTH1 120532Z 16008KT 23/14 A2984 RMK A01 T02320143  RH  058%=      5-min Rain = 0
KTH1 120533Z 16008KT 23/14 A2984 RMK A01 T02310144  RH  058%=      5-min Rain = 0
KTH1 120534Z 16008KT 23/14 A2984 RMK A01 T02310143  RH  058%=      5-min Rain = 0
KTH1 120535Z 16008KT 23/14 A2984 RMK A01 T02310143  RH  058%=      5-min Rain = 0
KTH1 120536Z 16008KT 23/14 A2984 RMK A01 T02310143  RH  058%=      5-min Rain = 0
KTH1 120537Z 16009KT 23/14 A2984 RMK A01 T02310143  RH  058%=      5-min Rain = 0
KTH1 120538Z 16009KT 23/14 A2984 RMK A01 T02310143  RH  058%=      5-min Rain = 0
KTH1 120539Z 16008KT 23/14 A2984 RMK A01 T02310143  RH  057%=      5-min Rain = 0
KTH1 120540Z 16007KT 23/14 A2984 RMK A01 T02310143  RH  058%=      5-min Rain = 0
KTH1 120541Z 15008KT 23/14 A2984 RMK A01 T02320144  RH  058%=      5-min Rain = 0
KTH1 120542Z 16008KT 23/14 A2984 RMK A01 T02310144  RH  058%=      5-min Rain = 0
KTH1 120543Z 15008KT 23/14 A2984 RMK A01 T02300143  RH  058%=      5-min Rain = 0
KTH1 120544Z 16008KT 23/14 A2984 RMK A01 T02290143  RH  058%=      5-min Rain = 0
KTH1 120545Z 16008KT 23/14 A2984 RMK A01 T02290144  RH  058%=      5-min Rain = 0
KTH1 120546Z 16009KT 23/14 A2984 RMK A01 T02290144  RH  058%=      5-min Rain = 0
KTH1 120547Z 15008G13KT 23/14 A2984 RMK A01 T02290143  RH  059%=      5-min Rain = 0
KTH1 120548Z 16008KT 23/14 A2984 RMK A01 T02290143  RH  059%=      5-min Rain = 0
KTH1 120549Z 15009KT 23/14 A2984 RMK A01 T02280143  RH  059%=      5-min Rain = 0
KTH1 120550Z 15009KT 23/14 A2984 RMK A01 T02290144  RH  059%=      5-min Rain = 0
KTH1 120551Z 16008KT 23/14 A2984 RMK A01 T02280144  RH  059%=      5-min Rain = 0
KTH1 120552Z 16008KT 23/14 A2984 RMK A01 T02280144  RH  059%=      5-min Rain = 0
KTH1 120553Z 16009KT 23/14 A2984 RMK A01 T02270144  RH  059%=      5-min Rain = 0
KTH1 120554Z 15008G13KT 23/14 A2984 RMK A01 T02270143  RH  059%=      5-min Rain = 0
KTH1 120555Z 16008KT 23/14 A2984 RMK A01 T02280144  RH  059%=      5-min Rain = 0
KTH1 120556Z 15009KT 23/14 A2984 RMK A01 T02270144  RH  059%=      5-min Rain = 0
KTH1 120557Z 15008KT 23/14 A2984 RMK A01 T02270144  RH  059%=      5-min Rain = 0
KTH1 120558Z 15008KT 23/14 A2984 RMK A01 T02270144  RH  059%=      5-min Rain = 0
KTH1 120559Z 16010KT 23/14 A2984 RMK A01 T02270144  RH  059%=      5-min Rain = 0
KTH1 120600Z 16010KT 23/14 A2984 RMK A01 T02260143  RH  059%=      5-min Rain = 0
KTH1 120601Z 16008KT 23/14 A2984 RMK A01 T02270144  RH  059%=      5-min Rain = 0
KTH1 120602Z 15007KT 23/14 A2984 RMK A01 T02270144  RH  059%=      5-min Rain = 0
KTH1 120603Z 15009KT 23/15 A2984 RMK A01 T02270145  RH  060%=      5-min Rain = 0
KTH1 120604Z 15007KT 23/14 A2984 RMK A01 T02260144  RH  060%=      5-min Rain = 0
KTH1 120605Z 16008G14KT 23/14 A2984 RMK A01 T02260144  RH  060%=      5-min Rain = 0
KTH1 120606Z 15010KT 23/14 A2983 RMK A01 T02250144  RH  060%=      5-min Rain = 0
KTH1 120607Z 15008KT 23/15 A2984 RMK A01 T02250145  RH  060%=      5-min Rain = 0
KTH1 120608Z 16009KT 23/14 A2984 RMK A01 T02250144  RH  060%=      5-min Rain = 0
KTH1 120609Z 15010KT 23/15 A2983 RMK A01 T02250145  RH  060%=      5-min Rain = 0
KTH1 120610Z 15008KT 23/14 A2983 RMK A01 T02250144  RH  060%=      5-min Rain = 0
KTH1 120611Z 15009KT 23/15 A2983 RMK A01 T02250145  RH  060%=      5-min Rain = 0
KTH1 120612Z 16009KT 23/15 A2983 RMK A01 T02250145  RH  061%=      5-min Rain = 0
KTH1 120613Z 16009KT 22/15 A2983 RMK A01 T02240145  RH  061%=      5-min Rain = 0
KTH1 120614Z 15009KT 22/15 A2983 RMK A01 T02240145  RH  061%=      5-min Rain = 0
KTH1 120615Z 16008KT 22/15 A2983 RMK A01 T02240145  RH  061%=      5-min Rain = 0
KTH1 120616Z 15010KT 22/15 A2983 RMK A01 T02240145  RH  061%=      5-min Rain = 0
KTH1 120617Z 15008G14KT 22/15 A2983 RMK A01 T02240145  RH  061%=      5-min Rain = 0
KTH1 120618Z 16008G13KT 22/15 A2983 RMK A01 T02240145  RH  061%=      5-min Rain = 0
KTH1 120619Z 16010KT 22/15 A2984 RMK A01 T02240145  RH  061%=      5-min Rain = 0
KTH1 120620Z 16009KT 22/15 A2984 RMK A01 T02240145  RH  061%=      5-min Rain = 0
KTH1 120621Z 15008KT 22/15 A2984 RMK A01 T02240145  RH  061%=      5-min Rain = 0
KTH1 120622Z 16008G13KT 22/15 A2984 RMK A01 T02240145  RH  061%=      5-min Rain = 0
KTH1 120623Z 16010KT 22/14 A2984 RMK A01 T02230144  RH  061%=      5-min Rain = 0
KTH1 120624Z 16009KT 22/14 A2984 RMK A01 T02230144  RH  061%=      5-min Rain = 0
KTH1 120625Z 16008KT 22/14 A2984 RMK A01 T02240144  RH  061%=      5-min Rain = 0
KTH1 120626Z 16009G14KT 22/14 A2984 RMK A01 T02240144  RH  061%=      5-min Rain = 0
KTH1 120627Z 16009KT 22/15 A2984 RMK A01 T02240145  RH  061%=      5-min Rain = 0
KTH1 120628Z 15007KT 22/15 A2984 RMK A01 T02240145  RH  061%=      5-min Rain = 0
KTH1 120629Z 16010KT 22/15 A2984 RMK A01 T02230145  RH  061%=      5-min Rain = 0
KTH1 120630Z 16010KT 22/15 A2984 RMK A01 T02230145  RH  061%=      5-min Rain = 0
KTH1 120631Z 16008G13KT 22/14 A2984 RMK A01 T02230144  RH  061%=      5-min Rain = 0
KTH1 120632Z 16007KT 22/14 A2984 RMK A01 T02230144  RH  061%=      5-min Rain = 0
KTH1 120633Z 15008KT 22/14 A2984 RMK A01 T02230144  RH  061%=      5-min Rain = 0
KTH1 120634Z 16008KT 22/14 A2984 RMK A01 T02240144  RH  061%=      5-min Rain = 0
KTH1 120635Z 16010KT 22/15 A2984 RMK A01 T02240145  RH  061%=      5-min Rain = 0
KTH1 120636Z 16008G13KT 22/15 A2984 RMK A01 T02230145  RH  061%=      5-min Rain = 0
KTH1 120637Z 16010KT 22/15 A2984 RMK A01 T02230145  RH  061%=      5-min Rain = 0
KTH1 120638Z 16008KT 22/14 A2984 RMK A01 T02230144  RH  061%=      5-min Rain = 0
KTH1 120639Z 16009KT 22/14 A2984 RMK A01 T02230144  RH  061%=      5-min Rain = 0
KTH1 120640Z 16008KT 22/15 A2984 RMK A01 T02230145  RH  061%=      5-min Rain = 0
KTH1 120641Z 15009KT 22/15 A2984 RMK A01 T02230145  RH  061%=      5-min Rain = 0
KTH1 120642Z 15010KT 22/14 A2984 RMK A01 T02230144  RH  061%=      5-min Rain = 0
KTH1 120643Z 16010KT 22/15 A2984 RMK A01 T02230145  RH  061%=      5-min Rain = 0
KTH1 120644Z 15011KT 22/15 A2984 RMK A01 T02230145  RH  061%=      5-min Rain = 0
KTH1 120645Z 15009KT 22/14 A2984 RMK A01 T02230144  RH  061%=      5-min Rain = 0
KTH1 120646Z 16010KT 22/15 A2984 RMK A01 T02230145  RH  061%=      5-min Rain = 0
KTH1 120647Z 16009KT 22/15 A2984 RMK A01 T02240145  RH  061%=      5-min Rain = 0
KTH1 120648Z 16010KT 22/14 A2984 RMK A01 T02240144  RH  061%=      5-min Rain = 0
KTH1 120649Z 16009KT 22/14 A2984 RMK A01 T02240144  RH  061%=      5-min Rain = 0
KTH1 120650Z 15009G15KT 22/15 A2984 RMK A01 T02240145  RH  061%=      5-min Rain = 0
KTH1 120651Z 16010KT 22/15 A2984 RMK A01 T02240145  RH  061%=      5-min Rain = 0
KTH1 120652Z 15009KT 22/15 A2984 RMK A01 T02240146  RH  061%=      5-min Rain = 0
KTH1 120653Z 16013G18KT 22/15 A2984 RMK A01 T02230146  RH  061%=      5-min Rain = 0
KTH1 120654Z 16011KT 22/15 A2984 RMK A01 T02230145  RH  061%=      5-min Rain = 0
KTH1 120655Z 16008KT 22/15 A2984 RMK A01 T02240145  RH  061%=      5-min Rain = 0
KTH1 120656Z 15009KT 22/15 A2984 RMK A01 T02240145  RH  061%=      5-min Rain = 0
KTH1 120657Z 16010KT 22/15 A2984 RMK A01 T02240145  RH  061%=      5-min Rain = 0
KTH1 120658Z 16009KT 22/15 A2984 RMK A01 T02240145  RH  061%=      5-min Rain = 0
KTH1 120659Z 16010KT 22/15 A2984 RMK A01 T02240146  RH  061%=      5-min Rain = 0
KTH1 120700Z 16011G17KT 22/15 A2984 RMK A01 T02240146  RH  061%=      5-min Rain = 0
KTH1 120701Z 15010KT 22/15 A2984 RMK A01 T02240146  RH  061%=      5-min Rain = 0
KTH1 120702Z 16010KT 22/15 A2984 RMK A01 T02240146  RH  061%=      5-min Rain = 0
KTH1 120703Z 16009KT 23/15 A2984 RMK A01 T02250147  RH  061%=      5-min Rain = 0
KTH1 120704Z 16009G15KT 22/15 A2984 RMK A01 T02240147  RH  061%=      5-min Rain = 0
KTH1 120705Z 16011KT 22/15 A2984 RMK A01 T02240147  RH  062%=      5-min Rain = 0
KTH1 120706Z 16009KT 22/15 A2985 RMK A01 T02240147  RH  061%=      5-min Rain = 0
KTH1 120707Z 16010G15KT 23/15 A2985 RMK A01 T02250147  RH  061%=      5-min Rain = 0
KTH1 120708Z 16008KT 23/15 A2984 RMK A01 T02250147  RH  061%=      5-min Rain = 0
KTH1 120709Z 16011G16KT 23/15 A2984 RMK A01 T02250147  RH  061%=      5-min Rain = 0
KTH1 120710Z 16013KT 23/15 A2985 RMK A01 T02250147  RH  061%=      5-min Rain = 0
KTH1 120711Z 16010G15KT 23/15 A2985 RMK A01 T02260148  RH  061%=      5-min Rain = 0
KTH1 120712Z 17011KT 23/15 A2985 RMK A01 T02270148  RH  061%=      5-min Rain = 0
KTH1 120713Z 16010KT 23/15 A2985 RMK A01 T02260148  RH  061%=      5-min Rain = 0
KTH1 120714Z 16011KT 23/15 A2985 RMK A01 T02270149  RH  061%=      5-min Rain = 0
KTH1 120715Z 17007KT 23/15 A2985 RMK A01 T02270149  RH  061%=      5-min Rain = 0
KTH1 120716Z 17009KT 23/15 A2985 RMK A01 T02260149  RH  062%=      5-min Rain = 0
KTH1 120717Z 16009KT 23/15 A2985 RMK A01 T02260149  RH  062%=      5-min Rain = 0
KTH1 120718Z 16012KT 23/15 A2985 RMK A01 T02260149  RH  062%=      5-min Rain = 0
KTH1 120719Z 17010KT 23/15 A2985 RMK A01 T02260149  RH  062%=      5-min Rain = 0
KTH1 120720Z 16011G16KT 23/15 A2985 RMK A01 T02260149  RH  062%=      5-min Rain = 0
KTH1 120721Z 17013G19KT 23/15 A2985 RMK A01 T02260150  RH  062%=      5-min Rain = 0
KTH1 120722Z 16009KT 23/15 A2985 RMK A01 T02270150  RH  062%=      5-min Rain = 0
KTH1 120723Z 17012KT 23/15 A2985 RMK A01 T02270150  RH  062%=      5-min Rain = 0
KTH1 120724Z 16010KT 23/15 A2985 RMK A01 T02270150  RH  062%=      5-min Rain = 0
KTH1 120725Z 16008G14KT 23/15 A2985 RMK A01 T02270150  RH  062%=      5-min Rain = 0
KTH1 120726Z 16010KT 23/15 A2985 RMK A01 T02270151  RH  062%=      5-min Rain = 0
KTH1 120727Z 16009KT 23/15 A2985 RMK A01 T02270151  RH  062%=      5-min Rain = 0
KTH1 120728Z 16009KT 23/15 A2985 RMK A01 T02260151  RH  062%=      5-min Rain = 0
KTH1 120729Z 17009KT 23/15 A2985 RMK A01 T02260151  RH  063%=      5-min Rain = 0
KTH1 120730Z 16008G14KT 23/15 A2985 RMK A01 T02260151  RH  063%=      5-min Rain = 0
KTH1 120731Z 17009KT 23/15 A2985 RMK A01 T02250151  RH  063%=      5-min Rain = 0
KTH1 120732Z 17011KT 23/15 A2985 RMK A01 T02250151  RH  063%=      5-min Rain = 0
KTH1 120733Z 16011G17KT 23/15 A2985 RMK A01 T02250152  RH  063%=      5-min Rain = 0
KTH1 120734Z 17009KT 23/15 A2985 RMK A01 T02250152  RH  063%=      5-min Rain = 0
KTH1 120735Z 17010G16KT 23/15 A2985 RMK A01 T02250152  RH  063%=      5-min Rain = 0
KTH1 120736Z 17009G15KT 23/15 A2984 RMK A01 T02250152  RH  063%=      5-min Rain = 0
KTH1 120737Z 16011G16KT 23/15 A2984 RMK A01 T02250152  RH  063%=      5-min Rain = 0
KTH1 120738Z 17012KT 22/15 A2984 RMK A01 T02240152  RH  063%=      5-min Rain = 0
KTH1 120739Z 16012KT 23/15 A2984 RMK A01 T02250152  RH  063%=      5-min Rain = 0
KTH1 120740Z 16011KT 23/15 A2984 RMK A01 T02250152  RH  063%=      5-min Rain = 0
KTH1 120741Z 17011KT 23/15 A2984 RMK A01 T02250152  RH  063%=      5-min Rain = 0
KTH1 120742Z 16012G17KT 23/15 A2984 RMK A01 T02250152  RH  063%=      5-min Rain = 0
KTH1 120743Z 17011G17KT 22/15 A2984 RMK A01 T02240152  RH  064%=      5-min Rain = 0
KTH1 120744Z 17012KT 22/15 A2984 RMK A01 T02240152  RH  064%=      5-min Rain = 0
KTH1 120745Z 16010G15KT 22/15 A2984 RMK A01 T02240153  RH  064%=      5-min Rain = 0
KTH1 120746Z 15011G18KT 22/15 A2984 RMK A01 T02240153  RH  064%=      5-min Rain = 0
KTH1 120747Z 17010G17KT 22/15 A2984 RMK A01 T02230153  RH  064%=      5-min Rain = 0
KTH1 120748Z 16010G15KT 22/15 A2984 RMK A01 T02230153  RH  064%=      5-min Rain = 0
KTH1 120749Z 17011G16KT 22/15 A2984 RMK A01 T02230153  RH  064%=      5-min Rain = 0
KTH1 120750Z 16012KT 22/15 A2984 RMK A01 T02230153  RH  065%=      5-min Rain = 0
KTH1 120751Z 17012KT 22/15 A2984 RMK A01 T02220153  RH  065%=      5-min Rain = 0
KTH1 120752Z 16008KT 22/15 A2984 RMK A01 T02230154  RH  065%=      5-min Rain = 0
KTH1 120753Z 16011G18KT 22/15 A2984 RMK A01 T02220153  RH  065%=      5-min Rain = 0
KTH1 120754Z 17013G20KT 22/15 A2984 RMK A01 T02210153  RH  065%=      5-min Rain = 0
KTH1 120755Z 16010G15KT 22/15 A2984 RMK A01 T02210153  RH  065%=      5-min Rain = 0
KTH1 120756Z 16011KT 22/15 A2984 RMK A01 T02210153  RH  065%=      5-min Rain = 0
KTH1 120757Z 16011G16KT 22/15 A2984 RMK A01 T02220154  RH  065%=      5-min Rain = 0
KTH1 120758Z 16012KT 22/15 A2983 RMK A01 T02210154  RH  065%=      5-min Rain = 0
KTH1 120759Z 16009KT 22/15 A2983 RMK A01 T02210154  RH  065%=      5-min Rain = 0
KTH1 120800Z 16010KT 22/15 A2983 RMK A01 T02210154  RH  066%=      5-min Rain = 0
KTH1 120801Z 16011KT 22/15 A2983 RMK A01 T02210154  RH  066%=      5-min Rain = 0
KTH1 120802Z 16010KT 22/15 A2983 RMK A01 T02200154  RH  066%=      5-min Rain = 0
KTH1 120803Z 17010KT 22/15 A2983 RMK A01 T02200154  RH  066%=      5-min Rain = 0
KTH1 120804Z 17011KT 22/15 A2983 RMK A01 T02190154  RH  066%=      5-min Rain = 0
KTH1 120805Z 16010KT 22/16 A2983 RMK A01 T02190155  RH  067%=      5-min Rain = 0
KTH1 120806Z 16008KT 22/16 A2983 RMK A01 T02190155  RH  067%=      5-min Rain = 0
KTH1 120807Z 17008KT 22/16 A2983 RMK A01 T02190155  RH  067%=      5-min Rain = 0
KTH1 120808Z 17011KT 22/16 A2983 RMK A01 T02180155  RH  067%=      5-min Rain = 0
KTH1 120809Z 16010G15KT 22/15 A2983 RMK A01 T02180154  RH  067%=      5-min Rain = 0
KTH1 120810Z 16009KT 22/16 A2983 RMK A01 T02180155  RH  067%=      5-min Rain = 0
KTH1 120811Z 16009G14KT 22/16 A2983 RMK A01 T02180155  RH  067%=      5-min Rain = 0
KTH1 120812Z 17010KT 22/16 A2983 RMK A01 T02180155  RH  067%=      5-min Rain = 0
KTH1 120813Z 16010KT 22/16 A2983 RMK A01 T02180155  RH  067%=      5-min Rain = 0
KTH1 120814Z 17010KT 22/16 A2983 RMK A01 T02180155  RH  067%=      5-min Rain = 0
KTH1 120815Z 16009KT 22/16 A2983 RMK A01 T02180156  RH  068%=      5-min Rain = 0
KTH1 120816Z 16008G13KT 22/16 A2983 RMK A01 T02180156  RH  068%=      5-min Rain = 0
KTH1 120817Z 16007KT 22/16 A2983 RMK A01 T02170156  RH  068%=      5-min Rain = 0
KTH1 120818Z 16009KT 22/16 A2983 RMK A01 T02170156  RH  068%=      5-min Rain = 0
KTH1 120819Z 17008KT 22/16 A2984 RMK A01 T02160156  RH  068%=      5-min Rain = 0
KTH1 120820Z 16006KT 22/16 A2984 RMK A01 T02160156  RH  068%=      5-min Rain = 0
KTH1 120821Z 16007KT 22/16 A2984 RMK A01 T02160156  RH  069%=      5-min Rain = 0
KTH1 120822Z 16007KT 22/16 A2984 RMK A01 T02160156  RH  069%=      5-min Rain = 0
KTH1 120823Z 17009KT 22/16 A2984 RMK A01 T02150156  RH  069%=      5-min Rain = 0
KTH1 120824Z 16005KT 22/16 A2984 RMK A01 T02160156  RH  069%=      5-min Rain = 0
KTH1 120825Z 17008G14KT 22/16 A2984 RMK A01 T02160157  RH  069%=      5-min Rain = 0
KTH1 120826Z 16007KT 22/16 A2984 RMK A01 T02160156  RH  069%=      5-min Rain = 0
KTH1 120827Z 16008KT 22/16 A2984 RMK A01 T02160156  RH  069%=      5-min Rain = 0
KTH1 120828Z 17006KT 22/16 A2984 RMK A01 T02160156  RH  069%=      5-min Rain = 0
KTH1 120829Z 17011KT 22/16 A2984 RMK A01 T02160157  RH  069%=      5-min Rain = 0
KTH1 120830Z 16008KT 22/16 A2984 RMK A01 T02160157  RH  069%=      5-min Rain = 0
KTH1 120831Z 17006KT 22/16 A2984 RMK A01 T02160157  RH  069%=      5-min Rain = 0
KTH1 120832Z 17007KT 22/16 A2984 RMK A01 T02150157  RH  070%=      5-min Rain = 0
KTH1 120833Z 17007G13KT 21/16 A2984 RMK A01 T02140157  RH  070%=      5-min Rain = 0
KTH1 120834Z 16007KT 21/16 A2984 RMK A01 T02140158  RH  070%=      5-min Rain = 0
KTH1 120835Z 17006KT 21/16 A2984 RMK A01 T02140158  RH  070%=      5-min Rain = 0
KTH1 120836Z 16007KT 21/16 A2984 RMK A01 T02140158  RH  070%=      5-min Rain = 0
KTH1 120837Z 16008KT 21/16 A2984 RMK A01 T02130158  RH  071%=      5-min Rain = 0
KTH1 120838Z 17009KT 21/16 A2984 RMK A01 T02130158  RH  071%=      5-min Rain = 0
KTH1 120839Z 16007KT 21/16 A2984 RMK A01 T02130158  RH  071%=      5-min Rain = 0
KTH1 120840Z 17007KT 21/16 A2984 RMK A01 T02130158  RH  071%=      5-min Rain = 0
KTH1 120841Z 17007KT 21/16 A2984 RMK A01 T02130158  RH  071%=      5-min Rain = 0
KTH1 120842Z 17008KT 21/16 A2984 RMK A01 T02130158  RH  071%=      5-min Rain = 0
KTH1 120843Z 17007KT 21/16 A2984 RMK A01 T02130158  RH  071%=      5-min Rain = 0
KTH1 120844Z 17009G14KT 21/16 A2984 RMK A01 T02130158  RH  071%=      5-min Rain = 0
KTH1 120845Z 17007G14KT 21/16 A2984 RMK A01 T02130159  RH  071%=      5-min Rain = 0
KTH1 120846Z 17008KT 21/16 A2984 RMK A01 T02130159  RH  071%=      5-min Rain = 0
KTH1 120847Z 17007KT 21/16 A2984 RMK A01 T02120158  RH  071%=      5-min Rain = 0
KTH1 120848Z 16007G12KT 21/16 A2984 RMK A01 T02130159  RH  071%=      5-min Rain = 0
KTH1 120849Z 17008KT 21/16 A2984 RMK A01 T02120159  RH  071%=      5-min Rain = 0
KTH1 120850Z 17008KT 21/16 A2984 RMK A01 T02120159  RH  071%=      5-min Rain = 0
KTH1 120851Z 17008KT 21/16 A2984 RMK A01 T02120159  RH  071%=      5-min Rain = 0
KTH1 120852Z 17007KT 21/16 A2984 RMK A01 T02120159  RH  071%=      5-min Rain = 0
KTH1 120853Z 17010KT 21/16 A2984 RMK A01 T02120159  RH  071%=      5-min Rain = 0
KTH1 120854Z 17008KT 21/16 A2984 RMK A01 T02130159  RH  071%=      5-min Rain = 0
KTH1 120855Z 17009KT 21/16 A2984 RMK A01 T02130159  RH  071%=      5-min Rain = 0
KTH1 120856Z 17008G13KT 21/16 A2984 RMK A01 T02130160  RH  072%=      5-min Rain = 0
KTH1 120857Z 17009KT 21/16 A2984 RMK A01 T02130159  RH  071%=      5-min Rain = 0
KTH1 120858Z 17008KT 21/16 A2984 RMK A01 T02130160  RH  071%=      5-min Rain = 0
KTH1 120859Z 17008G14KT 21/16 A2984 RMK A01 T02130160  RH  071%=      5-min Rain = 0
KTH1 120900Z 17010KT 21/16 A2984 RMK A01 T02130160  RH  072%=      5-min Rain = 0
KTH1 120901Z 17010KT 21/16 A2984 RMK A01 T02130160  RH  072%=      5-min Rain = 0
KTH1 120902Z 17009KT 21/16 A2984 RMK A01 T02130160  RH  071%=      5-min Rain = 0
KTH1 120903Z 17008KT 21/16 A2984 RMK A01 T02130160  RH  072%=      5-min Rain = 0
KTH1 120904Z 18007G12KT 21/16 A2984 RMK A01 T02130160  RH  072%=      5-min Rain = 0
KTH1 120905Z 17008KT 21/16 A2984 RMK A01 T02130160  RH  072%=      5-min Rain = 0
KTH1 120906Z 17007KT 21/16 A2984 RMK A01 T02130160  RH  072%=      5-min Rain = 0
KTH1 120907Z 18009G14KT 21/16 A2984 RMK A01 T02130161  RH  072%=      5-min Rain = 0
KTH1 120908Z 17007KT 21/16 A2984 RMK A01 T02120160  RH  072%=      5-min Rain = 0
KTH1 120909Z 17009KT 21/16 A2984 RMK A01 T02130161  RH  072%=      5-min Rain = 0
KTH1 120910Z 18009G14KT 21/16 A2984 RMK A01 T02130160  RH  072%=      5-min Rain = 0
KTH1 120911Z 17007KT 21/16 A2984 RMK A01 T02130161  RH  072%=      5-min Rain = 0
KTH1 120912Z 17007KT 21/16 A2984 RMK A01 T02130161  RH  072%=      5-min Rain = 0
KTH1 120913Z 17008KT 21/16 A2984 RMK A01 T02130161  RH  072%=      5-min Rain = 0
KTH1 120914Z 16008KT 21/16 A2985 RMK A01 T02120161  RH  073%=      5-min Rain = 0
KTH1 120915Z 17007KT 21/16 A2984 RMK A01 T02120161  RH  073%=      5-min Rain = 0
KTH1 120916Z 17009G14KT 21/16 A2984 RMK A01 T02120162  RH  073%=      5-min Rain = 0
KTH1 120917Z 17007G12KT 21/16 A2984 RMK A01 T02110162  RH  073%=      5-min Rain = 0
KTH1 120918Z 17008G14KT 21/16 A2984 RMK A01 T02110161  RH  073%=      5-min Rain = 0
KTH1 120919Z 17008KT 21/16 A2985 RMK A01 T02120162  RH  073%=      5-min Rain = 0
KTH1 120920Z 17010KT 21/16 A2984 RMK A01 T02120161  RH  073%=      5-min Rain = 0
KTH1 120921Z 18010KT 21/16 A2984 RMK A01 T02120162  RH  073%=      5-min Rain = 0
KTH1 120922Z 17007G12KT 21/16 A2984 RMK A01 T02120162  RH  073%=      5-min Rain = 0
KTH1 120923Z 17007KT 21/16 A2985 RMK A01 T02120162  RH  073%=      5-min Rain = 0
KTH1 120924Z 17009KT 21/16 A2985 RMK A01 T02120162  RH  073%=      5-min Rain = 0
KTH1 120925Z 16008KT 21/16 A2985 RMK A01 T02120162  RH  073%=      5-min Rain = 0
KTH1 120926Z 17007KT 21/16 A2985 RMK A01 T02120163  RH  074%=      5-min Rain = 0
KTH1 120927Z 17007G12KT 21/16 A2984 RMK A01 T02110163  RH  074%=      5-min Rain = 0
KTH1 120928Z 17008G13KT 21/16 A2984 RMK A01 T02110163  RH  074%=      5-min Rain = 0
KTH1 120929Z 17008KT 21/16 A2984 RMK A01 T02110163  RH  074%=      5-min Rain = 0
KTH1 120930Z 17010KT 21/16 A2985 RMK A01 T02110163  RH  074%=      5-min Rain = 0
KTH1 120931Z 17009G14KT 21/16 A2985 RMK A01 T02110163  RH  074%=      5-min Rain = 0
KTH1 120932Z 17008G13KT 21/16 A2985 RMK A01 T02110163  RH  074%=      5-min Rain = 0
KTH1 120933Z 17010KT 21/16 A2985 RMK A01 T02110163  RH  074%=      5-min Rain = 0
KTH1 120934Z 17009KT 21/16 A2985 RMK A01 T02120163  RH  074%=      5-min Rain = 0
KTH1 120935Z 17009KT 21/16 A2985 RMK A01 T02120163  RH  074%=      5-min Rain = 0
KTH1 120936Z 18008KT 21/16 A2985 RMK A01 T02120164  RH  074%=      5-min Rain = 0
KTH1 120937Z 17009G15KT 21/16 A2985 RMK A01 T02120164  RH  074%=      5-min Rain = 0
KTH1 120938Z 17008KT 21/16 A2985 RMK A01 T02110163  RH  074%=      5-min Rain = 0
KTH1 120939Z 17009KT 21/16 A2985 RMK A01 T02110164  RH  074%=      5-min Rain = 0
KTH1 120940Z 18010KT 21/16 A2985 RMK A01 T02110164  RH  074%=      5-min Rain = 0
KTH1 120941Z 17009KT 21/16 A2985 RMK A01 T02110164  RH  074%=      5-min Rain = 0
KTH1 120942Z 17010KT 21/16 A2985 RMK A01 T02110164  RH  074%=      5-min Rain = 0
KTH1 120943Z 17010KT 21/16 A2985 RMK A01 T02110164  RH  075%=      5-min Rain = 0
KTH1 120944Z 17009KT 21/16 A2985 RMK A01 T02110164  RH  075%=      5-min Rain = 0
KTH1 120945Z 17007KT 21/17 A2985 RMK A01 T02110165  RH  075%=      5-min Rain = 0
KTH1 120946Z 18007KT 21/16 A2985 RMK A01 T02110164  RH  075%=      5-min Rain = 0
KTH1 120947Z 17012KT 21/16 A2985 RMK A01 T02100164  RH  075%=      5-min Rain = 0
KTH1 120948Z 17008KT 21/16 A2985 RMK A01 T02100164  RH  075%=      5-min Rain = 0
KTH1 120949Z 17008KT 21/16 A2985 RMK A01 T02110164  RH  075%=      5-min Rain = 0
KTH1 120950Z 17006KT 21/16 A2985 RMK A01 T02110164  RH  075%=      5-min Rain = 0
KTH1 120951Z 17008KT 21/17 A2985 RMK A01 T02110165  RH  075%=      5-min Rain = 0
KTH1 120952Z 18007KT 21/17 A2985 RMK A01 T02100165  RH  075%=      5-min Rain = 0
KTH1 120953Z 18008KT 21/17 A2985 RMK A01 T02100165  RH  075%=      5-min Rain = 0
KTH1 120954Z 18008G13KT 21/16 A2985 RMK A01 T02090164  RH  075%=      5-min Rain = 0
KTH1 120955Z 18006KT 21/17 A2985 RMK A01 T02100165  RH  075%=      5-min Rain = 0
KTH1 120956Z 18007G12KT 21/17 A2985 RMK A01 T02090165  RH  075%=      5-min Rain = 0
KTH1 120957Z 17007KT 21/17 A2986 RMK A01 T02090165  RH  075%=      5-min Rain = 0
KTH1 120958Z 18006KT 21/17 A2986 RMK A01 T02100165  RH  076%=      5-min Rain = 0
KTH1 120959Z 18006KT 21/17 A2986 RMK A01 T02100165  RH  076%=      5-min Rain = 0
KTH1 121000Z 17004KT 21/17 A2986 RMK A01 T02090165  RH  076%=      5-min Rain = 0
KTH1 121001Z 18004KT 21/17 A2986 RMK A01 T02090165  RH  076%=      5-min Rain = 0
KTH1 121002Z 17006KT 21/17 A2986 RMK A01 T02080165  RH  077%=      5-min Rain = 0
KTH1 121003Z 18006KT 21/17 A2986 RMK A01 T02070165  RH  077%=      5-min Rain = 0
KTH1 121004Z 17006KT 21/17 A2986 RMK A01 T02070165  RH  077%=      5-min Rain = 0
KTH1 121005Z 18007KT 21/17 A2986 RMK A01 T02070165  RH  077%=      5-min Rain = 0
KTH1 121006Z 18005KT 21/17 A2986 RMK A01 T02070165  RH  077%=      5-min Rain = 0
KTH1 121007Z 18006KT 21/17 A2986 RMK A01 T02070165  RH  077%=      5-min Rain = 0
KTH1 121008Z 18005KT 21/17 A2987 RMK A01 T02060165  RH  077%=      5-min Rain = 0
KTH1 121009Z 19004KT 21/17 A2987 RMK A01 T02060165  RH  077%=      5-min Rain = 0
KTH1 121010Z 18006KT 21/17 A2987 RMK A01 T02060165  RH  077%=      5-min Rain = 0
KTH1 121011Z 18005KT 21/17 A2987 RMK A01 T02070165  RH  077%=      5-min Rain = 0
KTH1 121012Z 18004KT 21/17 A2987 RMK A01 T02060165  RH  077%=      5-min Rain = 0
KTH1 121013Z 19006KT 21/17 A2987 RMK A01 T02060165  RH  077%=      5-min Rain = 0
KTH1 121014Z 19005KT 21/17 A2987 RMK A01 T02060165  RH  078%=      5-min Rain = 0
KTH1 121015Z 19006KT 21/17 A2987 RMK A01 T02060166  RH  078%=      5-min Rain = 0
KTH1 121016Z 19005KT 21/17 A2987 RMK A01 T02060166  RH  078%=      5-min Rain = 0
KTH1 121017Z 19007KT 21/17 A2987 RMK A01 T02050166  RH  078%=      5-min Rain = 0
KTH1 121018Z 18006KT 21/17 A2987 RMK A01 T02060166  RH  078%=      5-min Rain = 0
KTH1 121019Z 18004KT 21/17 A2987 RMK A01 T02060166  RH  078%=      5-min Rain = 0
KTH1 121020Z 18006KT 21/17 A2987 RMK A01 T02050166  RH  078%=      5-min Rain = 0
KTH1 121021Z 18006KT 21/17 A2987 RMK A01 T02050166  RH  078%=      5-min Rain = 0
KTH1 121022Z 17004KT 21/17 A2987 RMK A01 T02050166  RH  078%=      5-min Rain = 0
KTH1 121023Z 18005KT 21/17 A2987 RMK A01 T02050166  RH  078%=      5-min Rain = 0
KTH1 121024Z 18005KT 21/17 A2988 RMK A01 T02050166  RH  079%=      5-min Rain = 0
KTH1 121025Z 18004KT 20/17 A2988 RMK A01 T02040166  RH  079%=      5-min Rain = 0
KTH1 121026Z 17005KT 20/17 A2988 RMK A01 T02040166  RH  079%=      5-min Rain = 0
KTH1 121027Z 17006KT 20/17 A2988 RMK A01 T02030166  RH  079%=      5-min Rain = 0
KTH1 121028Z 18006KT 20/17 A2988 RMK A01 T02040166  RH  079%=      5-min Rain = 0
KTH1 121029Z 18005KT 20/17 A2988 RMK A01 T02040166  RH  079%=      5-min Rain = 0
KTH1 121030Z 17006KT 20/17 A2988 RMK A01 T02040166  RH  079%=      5-min Rain = 0
KTH1 121031Z 17006KT 20/17 A2987 RMK A01 T02040167  RH  079%=      5-min Rain = 0
KTH1 121032Z 16006KT 20/17 A2987 RMK A01 T02030166  RH  079%=      5-min Rain = 0
KTH1 121033Z 17006KT 20/17 A2987 RMK A01 T02030166  RH  080%=      5-min Rain = 0
KTH1 121034Z 17006KT 20/17 A2987 RMK A01 T02030166  RH  079%=      5-min Rain = 0
KTH1 121035Z 17006KT 20/17 A2987 RMK A01 T02030166  RH  080%=      5-min Rain = 0
KTH1 121036Z 17006KT 20/17 A2987 RMK A01 T02020166  RH  080%=      5-min Rain = 0
KTH1 121037Z 17004KT 20/17 A2988 RMK A01 T02020167  RH  080%=      5-min Rain = 0
KTH1 121038Z 17004KT 20/17 A2988 RMK A01 T02020167  RH  080%=      5-min Rain = 0
KTH1 121039Z 17006KT 20/17 A2988 RMK A01 T02020167  RH  080%=      5-min Rain = 0
KTH1 121040Z 17005KT 20/17 A2988 RMK A01 T02020167  RH  080%=      5-min Rain = 0
KTH1 121041Z 17004KT 20/17 A2988 RMK A01 T02020167  RH  080%=      5-min Rain = 0
KTH1 121042Z 17005KT 20/17 A2988 RMK A01 T02020167  RH  080%=      5-min Rain = 0
KTH1 121043Z 19005KT 20/17 A2988 RMK A01 T02020167  RH  080%=      5-min Rain = 0
KTH1 121044Z 18005KT 20/17 A2988 RMK A01 T02020167  RH  080%=      5-min Rain = 0
KTH1 121045Z 17005KT 20/17 A2988 RMK A01 T02010167  RH  081%=      5-min Rain = 0
KTH1 121046Z 17005KT 20/17 A2988 RMK A01 T02010167  RH  081%=      5-min Rain = 0
KTH1 121047Z 18005KT 20/17 A2988 RMK A01 T02010167  RH  081%=      5-min Rain = 0
KTH1 121048Z 18005KT 20/17 A2988 RMK A01 T02010167  RH  081%=      5-min Rain = 0
KTH1 121049Z 17005KT 20/17 A2988 RMK A01 T02000167  RH  081%=      5-min Rain = 0
KTH1 121050Z 17006KT 20/17 A2988 RMK A01 T02010167  RH  081%=      5-min Rain = 0
KTH1 121051Z 17005KT 20/17 A2988 RMK A01 T02000167  RH  081%=      5-min Rain = 0
KTH1 121052Z 17004KT 20/17 A2988 RMK A01 T02000167  RH  081%=      5-min Rain = 0
KTH1 121053Z 17003KT 20/17 A2988 RMK A01 T02000167  RH  081%=      5-min Rain = 0
KTH1 121054Z 17005KT 20/17 A2988 RMK A01 T02000167  RH  081%=      5-min Rain = 0
KTH1 121055Z 18005KT 20/17 A2988 RMK A01 T01990167  RH  081%=      5-min Rain = 0
KTH1 121056Z 18004KT 20/17 A2989 RMK A01 T01990167  RH  082%=      5-min Rain = 0
KTH1 121057Z 17005KT 20/17 A2989 RMK A01 T01990167  RH  082%=      5-min Rain = 0
KTH1 121058Z 17005KT 20/17 A2989 RMK A01 T01990167  RH  082%=      5-min Rain = 0
KTH1 121059Z 17008KT 20/17 A2989 RMK A01 T01980167  RH  082%=      5-min Rain = 0
KTH1 121100Z 17006KT 20/17 A2989 RMK A01 T01980167  RH  082%=      5-min Rain = 0
KTH1 121101Z 17006KT 20/17 A2989 RMK A01 T01990167  RH  082%=      5-min Rain = 0
KTH1 121102Z 18005KT 20/17 A2989 RMK A01 T01990167  RH  082%=      5-min Rain = 0
KTH1 121103Z 18005KT 20/17 A2989 RMK A01 T01990167  RH  082%=      5-min Rain = 0
KTH1 121104Z 18005KT 20/17 A2989 RMK A01 T01980167  RH  082%=      5-min Rain = 0
KTH1 121105Z 17006KT 20/17 A2989 RMK A01 T01980167  RH  083%=      5-min Rain = 0
KTH1 121106Z 18004KT 20/17 A2989 RMK A01 T01980167  RH  083%=      5-min Rain = 0
KTH1 121107Z 18006KT 20/17 A2989 RMK A01 T01970167  RH  083%=      5-min Rain = 0
KTH1 121108Z 18006KT 20/17 A2989 RMK A01 T01970167  RH  083%=      5-min Rain = 0
KTH1 121109Z 17007KT 20/17 A2989 RMK A01 T01970167  RH  083%=      5-min Rain = 0
KTH1 121110Z 18006G11KT 20/17 A2989 RMK A01 T01970168  RH  083%=      5-min Rain = 0
KTH1 121111Z 17006KT 20/17 A2989 RMK A01 T01970168  RH  083%=      5-min Rain = 0
KTH1 121112Z 17006KT 20/17 A2989 RMK A01 T01970168  RH  083%=      5-min Rain = 0
KTH1 121113Z 18007KT 20/17 A2989 RMK A01 T01970168  RH  083%=      5-min Rain = 0
KTH1 121114Z 17007KT 20/17 A2989 RMK A01 T01970168  RH  083%=      5-min Rain = 0
KTH1 121115Z 18007KT 20/17 A2989 RMK A01 T01980168  RH  083%=      5-min Rain = 0
KTH1 121116Z 18007KT 20/17 A2989 RMK A01 T01980168  RH  083%=      5-min Rain = 0
KTH1 121117Z 18008KT 20/17 A2989 RMK A01 T01980168  RH  083%=      5-min Rain = 0
KTH1 121118Z 18007KT 20/17 A2989 RMK A01 T01980168  RH  083%=      5-min Rain = 0
KTH1 121119Z 17007KT 20/17 A2989 RMK A01 T01980168  RH  083%=      5-min Rain = 0
KTH1 121120Z 17008KT 20/17 A2989 RMK A01 T01980168  RH  083%=      5-min Rain = 0
KTH1 121121Z 17007KT 20/17 A2989 RMK A01 T01980168  RH  083%=      5-min Rain = 0
KTH1 121122Z 17008KT 20/17 A2989 RMK A01 T01980168  RH  083%=      5-min Rain = 0
KTH1 121123Z 16007KT 20/17 A2989 RMK A01 T01980168  RH  083%=      5-min Rain = 0
KTH1 121124Z 17007KT 20/17 A2989 RMK A01 T01980168  RH  083%=      5-min Rain = 0
KTH1 121125Z 17006KT 20/17 A2989 RMK A01 T01980168  RH  083%=      5-min Rain = 0
KTH1 121126Z 17007KT 20/17 A2989 RMK A01 T01970168  RH  083%=      5-min Rain = 0
KTH1 121127Z 16006KT 20/17 A2989 RMK A01 T01970168  RH  083%=      5-min Rain = 0
KTH1 121128Z 17006KT 20/17 A2989 RMK A01 T01970168  RH  083%=      5-min Rain = 0
KTH1 121129Z 17005KT 20/17 A2989 RMK A01 T01970168  RH  083%=      5-min Rain = 0
KTH1 121130Z 17006KT 20/17 A2989 RMK A01 T01970168  RH  083%=      5-min Rain = 0
KTH1 121131Z 18005KT 20/17 A2989 RMK A01 T01970168  RH  083%=      5-min Rain = 0
KTH1 121132Z 17004KT 20/17 A2989 RMK A01 T01970168  RH  084%=      5-min Rain = 0
KTH1 121133Z 17007KT 20/17 A2989 RMK A01 T01960168  RH  084%=      5-min Rain = 0
KTH1 121134Z 17006KT 20/17 A299 RMK A01 T01960168  RH  084%=      5-min Rain = 0
KTH1 121135Z 17006KT 20/17 A299 RMK A01 T01960168  RH  084%=      5-min Rain = 0
KTH1 121136Z 17005KT 20/17 A299 RMK A01 T01960168  RH  084%=      5-min Rain = 0
KTH1 121137Z 17006KT 20/17 A299 RMK A01 T01960168  RH  084%=      5-min Rain = 0
KTH1 121138Z 16006KT 20/17 A299 RMK A01 T01960168  RH  084%=      5-min Rain = 0
KTH1 121139Z 17005KT 20/17 A299 RMK A01 T01960168  RH  084%=      5-min Rain = 0
KTH1 121140Z 17004KT 20/17 A299 RMK A01 T01960168  RH  084%=      5-min Rain = 0
KTH1 121141Z 18005KT 20/17 A299 RMK A01 T01960168  RH  084%=      5-min Rain = 0
KTH1 121142Z 17004KT 20/17 A299 RMK A01 T01960168  RH  084%=      5-min Rain = 0
KTH1 121143Z 18004KT 20/17 A299 RMK A01 T01950167  RH  084%=      5-min Rain = 0
KTH1 121144Z 17005KT 20/17 A299 RMK A01 T01950168  RH  084%=      5-min Rain = 0
KTH1 121145Z 18005KT 20/17 A299 RMK A01 T01950168  RH  084%=      5-min Rain = 0
KTH1 121146Z 17004KT 20/17 A299 RMK A01 T01950167  RH  084%=      5-min Rain = 0
KTH1 121147Z 18005KT 20/17 A299 RMK A01 T01950167  RH  084%=      5-min Rain = 0
KTH1 121148Z 17004KT 20/17 A299 RMK A01 T01950167  RH  084%=      5-min Rain = 0
KTH1 121149Z 17005KT 20/17 A299 RMK A01 T01950167  RH  084%=      5-min Rain = 0
KTH1 121150Z 17004KT 20/17 A299 RMK A01 T01950167  RH  084%=      5-min Rain = 0
KTH1 121151Z 16006KT 20/17 A299 RMK A01 T01950168  RH  084%=      5-min Rain = 0
KTH1 121152Z 17005KT 19/17 A299 RMK A01 T01940167  RH  084%=      5-min Rain = 0
KTH1 121153Z 16005KT 19/17 A299 RMK A01 T01940168  RH  084%=      5-min Rain = 0
KTH1 121154Z 16005KT 19/17 A299 RMK A01 T01940167  RH  085%=      5-min Rain = 0
KTH1 121155Z 16006KT 19/17 A299 RMK A01 T01940168  RH  085%=      5-min Rain = 0
KTH1 121156Z 16007KT 19/17 A299 RMK A01 T01940168  RH  085%=      5-min Rain = 0
KTH1 121157Z 16006KT 19/17 A299 RMK A01 T01930167  RH  085%=      5-min Rain = 0
KTH1 121158Z 16007KT 19/17 A299 RMK A01 T01940168  RH  085%=      5-min Rain = 0
KTH1 121159Z 16006KT 19/17 A299 RMK A01 T01930167  RH  085%=      5-min Rain = 0
KTH1 121200Z 16006KT 19/17 A299 RMK A01 T01930168  RH  085%=      5-min Rain = 0
KTH1 121201Z 17006KT 19/17 A2991 RMK A01 T01930168  RH  085%=      5-min Rain = 0
KTH1 121202Z 17007KT 19/17 A2991 RMK A01 T01930167  RH  085%=      5-min Rain = 0
KTH1 121203Z 16006KT 19/17 A2991 RMK A01 T01930167  RH  085%=      5-min Rain = 0
KTH1 121204Z 16006KT 19/17 A2991 RMK A01 T01930167  RH  085%=      5-min Rain = 0
KTH1 121205Z 16007KT 19/17 A2991 RMK A01 T01930167  RH  085%=      5-min Rain = 0
KTH1 121206Z 16006KT 19/17 A299 RMK A01 T01930167  RH  085%=      5-min Rain = 0
KTH1 121207Z 16009KT 19/17 A299 RMK A01 T01940167  RH  085%=      5-min Rain = 0
KTH1 121208Z 16008KT 19/17 A299 RMK A01 T01940167  RH  084%=      5-min Rain = 0
KTH1 121209Z 16008KT 20/17 A299 RMK A01 T01950167  RH  084%=      5-min Rain = 0
KTH1 121210Z 16009KT 20/17 A299 RMK A01 T01950167  RH  084%=      5-min Rain = 0
KTH1 121211Z 16009KT 20/17 A299 RMK A01 T01950167  RH  084%=      5-min Rain = 0
KTH1 121212Z 16007KT 20/17 A299 RMK A01 T01950167  RH  084%=      5-min Rain = 0
KTH1 121213Z 15007KT 20/17 A299 RMK A01 T01960167  RH  084%=      5-min Rain = 0
KTH1 121214Z 16006KT 20/17 A299 RMK A01 T01960168  RH  084%=      5-min Rain = 0
KTH1 121215Z 16006KT 20/17 A299 RMK A01 T01960167  RH  083%=      5-min Rain = 0
KTH1 121216Z 16007KT 20/17 A299 RMK A01 T01960167  RH  083%=      5-min Rain = 0
KTH1 121217Z 16007KT 20/17 A299 RMK A01 T01970167  RH  083%=      5-min Rain = 0
KTH1 121218Z 16007KT 20/17 A2991 RMK A01 T01970167  RH  083%=      5-min Rain = 0
KTH1 121219Z 15006KT 20/17 A2991 RMK A01 T01980167  RH  083%=      5-min Rain = 0
KTH1 121220Z 16006KT 20/17 A2991 RMK A01 T01980167  RH  082%=      5-min Rain = 0
KTH1 121221Z 15005KT 20/17 A2991 RMK A01 T01980167  RH  082%=      5-min Rain = 0
KTH1 121222Z 16007KT 20/17 A2991 RMK A01 T01990167  RH  082%=      5-min Rain = 0
KTH1 121223Z 16006KT 20/17 A2991 RMK A01 T01990167  RH  082%=      5-min Rain = 0
KTH1 121224Z 16008KT 20/17 A2991 RMK A01 T01990168  RH  082%=      5-min Rain = 0
KTH1 121225Z 15007KT 20/17 A2991 RMK A01 T01990167  RH  082%=      5-min Rain = 0
KTH1 121226Z 16006KT 20/17 A2991 RMK A01 T01990167  RH  082%=      5-min Rain = 0
KTH1 121227Z 16007KT 20/17 A2991 RMK A01 T02000168  RH  082%=      5-min Rain = 0
KTH1 121228Z 16007KT 20/17 A2991 RMK A01 T01990167  RH  082%=      5-min Rain = 0
KTH1 121229Z 16007KT 20/17 A2991 RMK A01 T02000167  RH  081%=      5-min Rain = 0
KTH1 121230Z 16007KT 20/17 A2991 RMK A01 T02000167  RH  081%=      5-min Rain = 0
KTH1 121231Z 16007KT 20/17 A2991 RMK A01 T02010168  RH  081%=      5-min Rain = 0
KTH1 121232Z 16007KT 20/17 A2991 RMK A01 T02010168  RH  081%=      5-min Rain = 0
KTH1 121233Z 16006KT 20/17 A2991 RMK A01 T02010167  RH  081%=      5-min Rain = 0
KTH1 121234Z 17006KT 20/17 A2991 RMK A01 T02020168  RH  081%=      5-min Rain = 0
KTH1 121235Z 16007KT 20/17 A2991 RMK A01 T02020167  RH  080%=      5-min Rain = 0
KTH1 121236Z 16006KT 20/17 A2991 RMK A01 T02030168  RH  080%=      5-min Rain = 0
KTH1 121237Z 16006KT 20/17 A2991 RMK A01 T02030167  RH  080%=      5-min Rain = 0
KTH1 121238Z 17005KT 20/17 A2991 RMK A01 T02030167  RH  080%=      5-min Rain = 0
KTH1 121239Z 16006KT 20/17 A2991 RMK A01 T02040168  RH  080%=      5-min Rain = 0
KTH1 121240Z 16004KT 20/17 A2991 RMK A01 T02040168  RH  079%=      5-min Rain = 0
KTH1 121241Z 16007KT 21/17 A2991 RMK A01 T02050168  RH  079%=      5-min Rain = 0
KTH1 121242Z 16005KT 21/17 A2991 RMK A01 T02050167  RH  079%=      5-min Rain = 0
KTH1 121243Z 16005KT 21/17 A2992 RMK A01 T02060168  RH  079%=      5-min Rain = 0
KTH1 121244Z 16004KT 21/17 A2992 RMK A01 T02060168  RH  079%=      5-min Rain = 0
KTH1 121245Z 16007G12KT 21/17 A2992 RMK A01 T02070169  RH  079%=      5-min Rain = 0
KTH1 121246Z 16008KT 21/17 A2992 RMK A01 T02080168  RH  078%=      5-min Rain = 0
KTH1 121247Z 16008KT 21/17 A2992 RMK A01 T02080168  RH  078%=      5-min Rain = 0
KTH1 121248Z 16005G12KT 21/17 A2992 RMK A01 T02080168  RH  078%=      5-min Rain = 0
KTH1 121249Z 17007KT 21/17 A2992 RMK A01 T02080168  RH  078%=      5-min Rain = 0
KTH1 121250Z 16006KT 21/17 A2992 RMK A01 T02080168  RH  078%=      5-min Rain = 0
KTH1 121251Z 17005KT 21/17 A2992 RMK A01 T02090168  RH  078%=      5-min Rain = 0
KTH1 121252Z 16005KT 21/17 A2992 RMK A01 T02090169  RH  078%=      5-min Rain = 0
KTH1 121253Z 18007KT 21/17 A2992 RMK A01 T02100169  RH  078%=      5-min Rain = 0
KTH1 121254Z 17005KT 21/17 A2992 RMK A01 T02100168  RH  077%=      5-min Rain = 0
KTH1 121255Z 16006KT 21/17 A2992 RMK A01 T02100168  RH  077%=      5-min Rain = 0
KTH1 121256Z 17005KT 21/17 A2992 RMK A01 T02100169  RH  077%=      5-min Rain = 0
KTH1 121257Z 16006G11KT 21/17 A2992 RMK A01 T02110169  RH  077%=      5-min Rain = 0
KTH1 121258Z 17007KT 21/17 A2992 RMK A01 T02110168  RH  076%=      5-min Rain = 0
KTH1 121259Z 16008KT 21/17 A2992 RMK A01 T02120169  RH  076%=      5-min Rain = 0
KTH1 121300Z 17006KT 21/17 A2992 RMK A01 T02120168  RH  076%=      5-min Rain = 0
KTH1 121301Z 16006KT 21/17 A2992 RMK A01 T02120169  RH  076%=      5-min Rain = 0
KTH1 121302Z 16007G12KT 21/17 A2992 RMK A01 T02130169  RH  076%=      5-min Rain = 0
KTH1 121303Z 16008KT 21/17 A2992 RMK A01 T02130169  RH  076%=      5-min Rain = 0
KTH1 121304Z 16009KT 21/17 A2992 RMK A01 T02140169  RH  075%=      5-min Rain = 0
KTH1 121305Z 16009KT 21/17 A2992 RMK A01 T02140168  RH  075%=      5-min Rain = 0
KTH1 121306Z 17008KT 21/17 A2992 RMK A01 T02140168  RH  075%=      5-min Rain = 0
KTH1 121307Z 16006KT 21/17 A2992 RMK A01 T02140169  RH  075%=      5-min Rain = 0
KTH1 121308Z 16008KT 22/17 A2992 RMK A01 T02150169  RH  075%=      5-min Rain = 0
KTH1 121309Z 17007KT 22/17 A2992 RMK A01 T02150170  RH  075%=      5-min Rain = 0
KTH1 121310Z 16008KT 22/17 A2992 RMK A01 T02150169  RH  075%=      5-min Rain = 0
KTH1 121311Z 17009KT 22/17 A2992 RMK A01 T02160169  RH  074%=      5-min Rain = 0
KTH1 121312Z 17008KT 22/17 A2992 RMK A01 T02160169  RH  075%=      5-min Rain = 0
KTH1 121313Z 16008KT 22/17 A2992 RMK A01 T02160169  RH  075%=      5-min Rain = 0
KTH1 121314Z 17010KT 22/17 A2992 RMK A01 T02170169  RH  074%=      5-min Rain = 0
KTH1 121315Z 17009KT 22/17 A2992 RMK A01 T02170169  RH  074%=      5-min Rain = 0
KTH1 121316Z 16006KT 22/17 A2992 RMK A01 T02170169  RH  074%=      5-min Rain = 0
KTH1 121317Z 17007KT 22/17 A2992 RMK A01 T02170170  RH  074%=      5-min Rain = 0
KTH1 121318Z 18011G18KT 22/17 A2992 RMK A01 T02180169  RH  074%=      5-min Rain = 0
KTH1 121319Z 17009G14KT 22/17 A2992 RMK A01 T02180168  RH  073%=      5-min Rain = 0
KTH1 121320Z 17010KT 22/17 A2993 RMK A01 T02180168  RH  073%=      5-min Rain = 0
KTH1 121321Z 17011G16KT 22/17 A2993 RMK A01 T02180167  RH  073%=      5-min Rain = 0
KTH1 121322Z 17011KT 22/17 A2993 RMK A01 T02180167  RH  073%=      5-min Rain = 0
KTH1 121323Z 18011KT 22/17 A2993 RMK A01 T02180167  RH  073%=      5-min Rain = 0
KTH1 121324Z 17008KT 22/17 A2993 RMK A01 T02180169  RH  073%=      5-min Rain = 0
KTH1 121325Z 18009KT 22/17 A2993 RMK A01 T02180169  RH  074%=      5-min Rain = 0
KTH1 121326Z 17011KT 22/17 A2993 RMK A01 T02190168  RH  073%=      5-min Rain = 0
KTH1 121327Z 18014KT 22/17 A2993 RMK A01 T02190168  RH  073%=      5-min Rain = 0
KTH1 121328Z 18013KT 22/17 A2993 RMK A01 T02190167  RH  072%=      5-min Rain = 0
KTH1 121329Z 18010KT 22/17 A2993 RMK A01 T02180168  RH  073%=      5-min Rain = 0
KTH1 121330Z 18008KT 22/17 A2993 RMK A01 T02170168  RH  074%=      5-min Rain = 0
KTH1 121331Z 18010G18KT 22/17 A2993 RMK A01 T02160167  RH  074%=      5-min Rain = 0
KTH1 121332Z 18011G16KT 22/17 A2993 RMK A01 T02150167  RH  074%=      5-min Rain = 0
KTH1 121333Z 17009G14KT 21/17 A2993 RMK A01 T02140166  RH  074%=      5-min Rain = 0
KTH1 121334Z 18009KT 21/17 A2993 RMK A01 T02130166  RH  075%=      5-min Rain = 0
KTH1 121335Z 18007KT 21/17 A2993 RMK A01 T02120167  RH  075%=      5-min Rain = 0
KTH1 121336Z 18008G14KT 21/17 A2993 RMK A01 T02120167  RH  076%=      5-min Rain = 0
KTH1 121337Z 17008KT 21/17 A2993 RMK A01 T02110167  RH  076%=      5-min Rain = 0
KTH1 121338Z 18010G16KT 21/17 A2993 RMK A01 T02100166  RH  076%=      5-min Rain = 0
KTH1 121339Z 17011KT 21/17 A2993 RMK A01 T02100166  RH  076%=      5-min Rain = 0
KTH1 121340Z 17008KT 21/17 A2993 RMK A01 T02100166  RH  076%=      5-min Rain = 0
KTH1 121341Z 17009G15KT 21/17 A2993 RMK A01 T02100167  RH  076%=      5-min Rain = 0
KTH1 121342Z 18013KT 21/17 A2993 RMK A01 T02100166  RH  076%=      5-min Rain = 0
KTH1 121343Z 18011G16KT 21/17 A2993 RMK A01 T02100166  RH  076%=      5-min Rain = 0
KTH1 121344Z 18009KT 21/17 A2993 RMK A01 T02100166  RH  076%=      5-min Rain = 0
KTH1 121345Z 17013KT 21/17 A2993 RMK A01 T02100166  RH  076%=      5-min Rain = 0
KTH1 121346Z 17013KT 21/17 A2993 RMK A01 T02090166  RH  076%=      5-min Rain = 0
KTH1 121347Z 17012G17KT 21/17 A2993 RMK A01 T02090166  RH  076%=      5-min Rain = 0
KTH1 121348Z 18009G14KT 21/17 A2993 RMK A01 T02100165  RH  076%=      5-min Rain = 0
KTH1 121349Z 18008KT 21/17 A2993 RMK A01 T02100166  RH  076%=      5-min Rain = 0
KTH1 121350Z 17009KT 21/17 A2993 RMK A01 T02110167  RH  076%=      5-min Rain = 0
KTH1 121351Z 17010KT 21/17 A2993 RMK A01 T02120167  RH  076%=      5-min Rain = 0
KTH1 121352Z 18011G19KT 21/17 A2993 RMK A01 T02130167  RH  075%=      5-min Rain = 0
KTH1 121353Z 18013KT 21/17 A2993 RMK A01 T02140166  RH  074%=      5-min Rain = 0
KTH1 121354Z 17011KT 22/17 A2993 RMK A01 T02160167  RH  074%=      5-min Rain = 0
KTH1 121355Z 17007KT 22/17 A2993 RMK A01 T02170168  RH  074%=      5-min Rain = 0
KTH1 121356Z 17009KT 22/17 A2993 RMK A01 T02190170  RH  074%=      5-min Rain = 0
KTH1 121357Z 18010KT 22/17 A2993 RMK A01 T02210170  RH  073%=      5-min Rain = 0
KTH1 121358Z 17007G12KT 22/17 A2993 RMK A01 T02220170  RH  072%=      5-min Rain = 0
KTH1 121359Z 19010G15KT 22/17 A2993 RMK A01 T02230170  RH  072%=      5-min Rain = 0
KTH1 121400Z 18008KT 22/17 A2993 RMK A01 T02240171  RH  072%=      5-min Rain = 0
KTH1 121401Z 17008KT 23/17 A2994 RMK A01 T02250171  RH  072%=      5-min Rain = 0
KTH1 121402Z 18007KT 23/17 A2994 RMK A01 T02250171  RH  071%=      5-min Rain = 0
KTH1 121403Z 17007KT 23/17 A2994 RMK A01 T02260172  RH  072%=      5-min Rain = 0
KTH1 121404Z 16008KT 23/17 A2994 RMK A01 T02270173  RH  071%=      5-min Rain = 0
KTH1 121405Z 17012G17KT 23/17 A2994 RMK A01 T02280171  RH  070%=      5-min Rain = 0
KTH1 121406Z 17009KT 23/17 A2994 RMK A01 T02270170  RH  070%=      5-min Rain = 0
KTH1 121407Z 17012KT 23/17 A2994 RMK A01 T02270171  RH  071%=      5-min Rain = 0
KTH1 121408Z 16010KT 23/17 A2994 RMK A01 T02270172  RH  071%=      5-min Rain = 0
KTH1 121409Z 17012KT 23/17 A2994 RMK A01 T02280170  RH  070%=      5-min Rain = 0
KTH1 121410Z 18008KT 23/17 A2994 RMK A01 T02280171  RH  070%=      5-min Rain = 0
KTH1 121411Z 17010KT 23/17 A2994 RMK A01 T02280172  RH  070%=      5-min Rain = 0
KTH1 121412Z 17012KT 23/17 A2994 RMK A01 T02290171  RH  070%=      5-min Rain = 0
KTH1 121413Z 17013KT 23/17 A2994 RMK A01 T02290170  RH  069%=      5-min Rain = 0
KTH1 121414Z 17012KT 23/17 A2994 RMK A01 T02290169  RH  069%=      5-min Rain = 0
KTH1 121415Z 18013G20KT 23/17 A2994 RMK A01 T02280169  RH  069%=      5-min Rain = 0
KTH1 121416Z 18008KT 23/17 A2994 RMK A01 T02280170  RH  070%=      5-min Rain = 0
KTH1 121417Z 18013G19KT 23/17 A2994 RMK A01 T02290172  RH  070%=      5-min Rain = 0
KTH1 121418Z 18017G23KT 23/17 A2994 RMK A01 T02300169  RH  069%=      5-min Rain = 0
KTH1 121419Z 18011G17KT 23/17 A2994 RMK A01 T02300169  RH  068%=      5-min Rain = 0
KTH1 121420Z 18015G20KT 23/17 A2994 RMK A01 T02300170  RH  069%=      5-min Rain = 0
KTH1 121421Z 18014G20KT 23/17 A2994 RMK A01 T02300168  RH  068%=      5-min Rain = 0
KTH1 121422Z 16014KT 23/17 A2994 RMK A01 T02300168  RH  068%=      5-min Rain = 0
KTH1 121423Z 16014G21KT 23/17 A2993 RMK A01 T02300169  RH  069%=      5-min Rain = 0
KTH1 121424Z 16014G20KT 23/17 A2993 RMK A01 T02300168  RH  068%=      5-min Rain = 0
KTH1 121425Z 17016G22KT 23/17 A2993 RMK A01 T02300168  RH  068%=      5-min Rain = 0
KTH1 121426Z 18015G20KT 23/17 A2993 RMK A01 T02300167  RH  068%=      5-min Rain = 0
KTH1 121427Z 18013KT 23/17 A2993 RMK A01 T02300168  RH  068%=      5-min Rain = 0
KTH1 121428Z 18008KT 23/17 A2993 RMK A01 T02310170  RH  069%=      5-min Rain = 0
KTH1 121429Z 18009KT 23/17 A2993 RMK A01 T02320172  RH  069%=      5-min Rain = 0
KTH1 121430Z 17013G18KT 23/17 A2993 RMK A01 T02330171  RH  068%=      5-min Rain = 0
KTH1 121431Z 16009KT 23/17 A2993 RMK A01 T02340170  RH  067%=      5-min Rain = 0
KTH1 121432Z 17014G19KT 23/17 A2994 RMK A01 T02340172  RH  068%=      5-min Rain = 0
KTH1 121433Z 18013G18KT 23/17 A2994 RMK A01 T02340169  RH  067%=      5-min Rain = 0
KTH1 121434Z 18014KT 23/17 A2994 RMK A01 T02340170  RH  067%=      5-min Rain = 0
KTH1 121435Z 18009KT 23/17 A2994 RMK A01 T02340172  RH  068%=      5-min Rain = 0
KTH1 121436Z 17011G17KT 24/17 A2994 RMK A01 T02350172  RH  068%=      5-min Rain = 0
KTH1 121437Z 18010KT 24/17 A2994 RMK A01 T02360171  RH  067%=      5-min Rain = 0
KTH1 121438Z 17011G18KT 24/17 A2994 RMK A01 T02360172  RH  067%=      5-min Rain = 0
KTH1 121439Z 17012G21KT 24/17 A2994 RMK A01 T02370170  RH  066%=      5-min Rain = 0
KTH1 121440Z 17012KT 24/17 A2994 RMK A01 T02370170  RH  066%=      5-min Rain = 0
KTH1 121441Z 17015G21KT 24/17 A2993 RMK A01 T02370170  RH  066%=      5-min Rain = 0
KTH1 121442Z 17012KT 24/17 A2994 RMK A01 T02360169  RH  066%=      5-min Rain = 0
KTH1 121443Z 17014G20KT 24/17 A2994 RMK A01 T02350171  RH  067%=      5-min Rain = 0
KTH1 121444Z 17012G17KT 24/17 A2994 RMK A01 T02360171  RH  067%=      5-min Rain = 0
KTH1 121445Z 17014G21KT 24/17 A2994 RMK A01 T02370172  RH  067%=      5-min Rain = 0
KTH1 121446Z 18016KT 24/17 A2994 RMK A01 T02380171  RH  066%=      5-min Rain = 0
KTH1 121447Z 18014G19KT 24/17 A2994 RMK A01 T02370169  RH  065%=      5-min Rain = 0
KTH1 121448Z 18011G16KT 24/17 A2994 RMK A01 T02370171  RH  066%=      5-min Rain = 0
KTH1 121449Z 18009G14KT 24/17 A2994 RMK A01 T02370173  RH  067%=      5-min Rain = 0
KTH1 121450Z 18007KT 24/17 A2994 RMK A01 T02390174  RH  067%=      5-min Rain = 0
KTH1 121451Z 17007KT 24/18 A2994 RMK A01 T02400176  RH  067%=      5-min Rain = 0
KTH1 121452Z 20010G15KT 24/18 A2994 RMK A01 T02420176  RH  066%=      5-min Rain = 0
KTH1 121453Z 19013G18KT 24/17 A2994 RMK A01 T02430174  RH  065%=      5-min Rain = 0
KTH1 121454Z 19014KT 24/17 A2994 RMK A01 T02430172  RH  065%=      5-min Rain = 0
KTH1 121455Z 19016KT 24/17 A2994 RMK A01 T02430172  RH  065%=      5-min Rain = 0
KTH1 121456Z 18013KT 24/17 A2994 RMK A01 T02420172  RH  065%=      5-min Rain = 0
KTH1 121457Z 18012G19KT 24/17 A2994 RMK A01 T02420172  RH  065%=      5-min Rain = 0
KTH1 121458Z 19012G18KT 24/17 A2994 RMK A01 T02420171  RH  064%=      5-min Rain = 0
KTH1 121459Z 18014G19KT 24/17 A2994 RMK A01 T02420174  RH  065%=      5-min Rain = 0
KTH1 121500Z 19015KT 24/17 A2994 RMK A01 T02430172  RH  065%=      5-min Rain = 0
KTH1 121501Z 18014KT 24/17 A2994 RMK A01 T02430171  RH  064%=      5-min Rain = 0
KTH1 121502Z 19014KT 24/17 A2994 RMK A01 T02440171  RH  064%=      5-min Rain = 0
KTH1 121503Z 19014KT 24/17 A2994 RMK A01 T02440172  RH  064%=      5-min Rain = 0
KTH1 121504Z 19013G21KT 24/17 A2994 RMK A01 T02440172  RH  064%=      5-min Rain = 0
KTH1 121505Z 19011KT 25/17 A2994 RMK A01 T02450173  RH  064%=      5-min Rain = 0
KTH1 121506Z 17012G17KT 25/17 A2994 RMK A01 T02460173  RH  064%=      5-min Rain = 0
KTH1 121507Z 18011KT 25/17 A2994 RMK A01 T02460172  RH  063%=      5-min Rain = 0
KTH1 121508Z 18009KT 25/17 A2994 RMK A01 T02470174  RH  064%=      5-min Rain = 0
KTH1 121509Z 18013G18KT 25/18 A2994 RMK A01 T02480176  RH  064%=      5-min Rain = 0
KTH1 121510Z 18012G18KT 25/17 A2994 RMK A01 T02490172  RH  062%=      5-min Rain = 0
KTH1 121511Z 17012G18KT 25/17 A2994 RMK A01 T02490174  RH  063%=      5-min Rain = 0
KTH1 121512Z 19014KT 25/17 A2994 RMK A01 T02500173  RH  062%=      5-min Rain = 0
KTH1 121513Z 19014G20KT 25/17 A2994 RMK A01 T02500172  RH  062%=      5-min Rain = 0
KTH1 121514Z 19014G19KT 25/17 A2994 RMK A01 T02490172  RH  062%=      5-min Rain = 0
KTH1 121515Z 19015KT 25/17 A2994 RMK A01 T02490171  RH  062%=      5-min Rain = 0
KTH1 121516Z 18014G20KT 25/17 A2994 RMK A01 T02490171  RH  062%=      5-min Rain = 0
KTH1 121517Z 18014KT 25/17 A2994 RMK A01 T02490172  RH  062%=      5-min Rain = 0
KTH1 121518Z 20013KT 25/17 A2994 RMK A01 T02490171  RH  062%=      5-min Rain = 0
KTH1 121519Z 19011G17KT 25/17 A2994 RMK A01 T02500172  RH  062%=      5-min Rain = 0
KTH1 121520Z 19011G16KT 25/17 A2994 RMK A01 T02510172  RH  061%=      5-min Rain = 0
KTH1 121521Z 19013G19KT 25/17 A2994 RMK A01 T02510173  RH  062%=      5-min Rain = 0
KTH1 121522Z 18011KT 25/17 A2994 RMK A01 T02520173  RH  062%=      5-min Rain = 0
KTH1 121523Z 18015G20KT 25/17 A2994 RMK A01 T02520174  RH  062%=      5-min Rain = 0
KTH1 121524Z 19014G19KT 25/17 A2994 RMK A01 T02530172  RH  061%=      5-min Rain = 0
KTH1 121525Z 20013KT 25/17 A2994 RMK A01 T02530172  RH  061%=      5-min Rain = 0
KTH1 121526Z 19013KT 25/17 A2994 RMK A01 T02530172  RH  061%=      5-min Rain = 0
KTH1 121527Z 20010KT 25/17 A2994 RMK A01 T02530174  RH  061%=      5-min Rain = 0
KTH1 121528Z 19011G17KT 25/18 A2994 RMK A01 T02540177  RH  062%=      5-min Rain = 0
KTH1 121529Z 19012KT 26/17 A2994 RMK A01 T02550174  RH  061%=      5-min Rain = 0
KTH1 121530Z 19007KT 26/18 A2994 RMK A01 T02550175  RH  061%=      5-min Rain = 0
KTH1 121531Z 18009G14KT 26/18 A2994 RMK A01 T02570179  RH  062%=      5-min Rain = 0
KTH1 121532Z 17010G18KT 26/18 A2994 RMK A01 T02590178  RH  061%=      5-min Rain = 0
KTH1 121533Z 18014G21KT 26/18 A2994 RMK A01 T02600176  RH  060%=      5-min Rain = 0
KTH1 121534Z 17013G18KT 26/17 A2994 RMK A01 T02600174  RH  059%=      5-min Rain = 0
KTH1 121535Z 17010KT 26/18 A2994 RMK A01 T02590176  RH  060%=      5-min Rain = 0
KTH1 121536Z 18011G16KT 26/17 A2994 RMK A01 T02590174  RH  059%=      5-min Rain = 0
KTH1 121537Z 19008G13KT 26/18 A2994 RMK A01 T02590177  RH  060%=      5-min Rain = 0
KTH1 121538Z 19010G15KT 26/18 A2994 RMK A01 T02600177  RH  060%=      5-min Rain = 0
KTH1 121539Z 18011G19KT 26/18 A2994 RMK A01 T02610177  RH  060%=      5-min Rain = 0
KTH1 121540Z 18011G17KT 26/18 A2994 RMK A01 T02620175  RH  059%=      5-min Rain = 0
KTH1 121541Z 18013G19KT 26/17 A2994 RMK A01 T02620174  RH  058%=      5-min Rain = 0
KTH1 121542Z 19010KT 26/17 A2994 RMK A01 T02610174  RH  058%=      5-min Rain = 0
KTH1 121543Z 17009G17KT 26/18 A2994 RMK A01 T02610178  RH  060%=      5-min Rain = 0
KTH1 121544Z 17009G16KT 26/18 A2994 RMK A01 T02620177  RH  060%=      5-min Rain = 0
KTH1 121545Z 18012KT 26/18 A2994 RMK A01 T02630178  RH  060%=      5-min Rain = 0
KTH1 121546Z 18012G18KT 26/18 A2994 RMK A01 T02640175  RH  058%=      5-min Rain = 0
KTH1 121547Z 19009G14KT 26/18 A2994 RMK A01 T02630179  RH  060%=      5-min Rain = 0
KTH1 121548Z 19011KT 26/18 A2994 RMK A01 T02640179  RH  059%=      5-min Rain = 0
KTH1 121549Z 19011KT 26/18 A2994 RMK A01 T02640177  RH  059%=      5-min Rain = 0
KTH1 121550Z 18011KT 26/18 A2994 RMK A01 T02640176  RH  058%=      5-min Rain = 0
KTH1 121551Z 18009G15KT 26/18 A2994 RMK A01 T02640177  RH  059%=      5-min Rain = 0
KTH1 121552Z 18012KT 27/18 A2994 RMK A01 T02650180  RH  059%=      5-min Rain = 0
KTH1 121553Z 19013G19KT 27/18 A2994 RMK A01 T02660175  RH  057%=      5-min Rain = 0
KTH1 121554Z 18010KT 27/18 A2994 RMK A01 T02650177  RH  058%=      5-min Rain = 0
KTH1 121555Z 20009KT 27/18 A2994 RMK A01 T02650178  RH  059%=      5-min Rain = 0
KTH1 121556Z 17010G19KT 27/18 A2993 RMK A01 T02660179  RH  059%=      5-min Rain = 0
KTH1 121557Z 19014G19KT 27/18 A2993 RMK A01 T02660175  RH  057%=      5-min Rain = 0
KTH1 121558Z 18014G20KT 27/18 A2993 RMK A01 T02660177  RH  058%=      5-min Rain = 0
KTH1 121559Z 18012KT 27/18 A2993 RMK A01 T02660175  RH  057%=      5-min Rain = 0
KTH1 121600Z 18012G20KT 27/18 A2993 RMK A01 T02650176  RH  058%=      5-min Rain = 0
KTH1 121601Z 20015G21KT 27/18 A2993 RMK A01 T02650175  RH  058%=      5-min Rain = 0
KTH1 121602Z 20013G19KT 27/17 A2993 RMK A01 T02660174  RH  057%=      5-min Rain = 0
KTH1 121603Z 19009G16KT 27/18 A2993 RMK A01 T02650176  RH  058%=      5-min Rain = 0
KTH1 121604Z 19012G18KT 27/18 A2993 RMK A01 T02660177  RH  058%=      5-min Rain = 0
KTH1 121605Z 18011KT 27/18 A2993 RMK A01 T02660177  RH  058%=      5-min Rain = 0
KTH1 121606Z 17009KT 27/18 A2993 RMK A01 T02670177  RH  058%=      5-min Rain = 0
KTH1 121607Z 17015G21KT 27/18 A2993 RMK A01 T02680175  RH  057%=      5-min Rain = 0
KTH1 121608Z 17009G14KT 27/17 A2993 RMK A01 T02680174  RH  057%=      5-min Rain = 0
KTH1 121609Z 19008G14KT 27/18 A2994 RMK A01 T02680178  RH  058%=      5-min Rain = 0
KTH1 121610Z 18007KT 27/18 A2994 RMK A01 T02690181  RH  059%=      5-min Rain = 0
KTH1 121611Z 18010KT 27/18 A2994 RMK A01 T02710181  RH  058%=      5-min Rain = 0
KTH1 121612Z 18011KT 27/18 A2994 RMK A01 T02720177  RH  056%=      5-min Rain = 0
KTH1 121613Z 18008G13KT 27/18 A2994 RMK A01 T02710178  RH  057%=      5-min Rain = 0
KTH1 121614Z 19008G14KT 27/18 A2993 RMK A01 T02710182  RH  058%=      5-min Rain = 0
KTH1 121615Z 18011KT 27/18 A2993 RMK A01 T02730179  RH  056%=      5-min Rain = 0
KTH1 121616Z 17014G19KT 27/18 A2994 RMK A01 T02730177  RH  056%=      5-min Rain = 0
KTH1 121617Z 17011G17KT 27/18 A2994 RMK A01 T02720175  RH  055%=      5-min Rain = 0
KTH1 121618Z 18013KT 27/18 A2994 RMK A01 T02710178  RH  057%=      5-min Rain = 0
KTH1 121619Z 18013G19KT 27/18 A2994 RMK A01 T02710175  RH  056%=      5-min Rain = 0
KTH1 121620Z 18016KT 27/17 A2994 RMK A01 T02710173  RH  055%=      5-min Rain = 0
KTH1 121621Z 18015KT 27/17 A2994 RMK A01 T02700173  RH  055%=      5-min Rain = 0
KTH1 121622Z 18011G16KT 27/17 A2994 RMK A01 T02700171  RH  055%=      5-min Rain = 0
KTH1 121623Z 19011KT 27/18 A2994 RMK A01 T02690175  RH  056%=      5-min Rain = 0
KTH1 121624Z 19012KT 27/17 A2993 RMK A01 T02700174  RH  056%=      5-min Rain = 0
KTH1 121625Z 18013G19KT 27/18 A2993 RMK A01 T02710175  RH  056%=      5-min Rain = 0
KTH1 121626Z 18013G19KT 27/17 A2993 RMK A01 T02710174  RH  055%=      5-min Rain = 0
KTH1 121627Z 19011KT 27/17 A2993 RMK A01 T02710174  RH  055%=      5-min Rain = 0
KTH1 121628Z 19013KT 27/18 A2993 RMK A01 T02710175  RH  056%=      5-min Rain = 0
KTH1 121629Z 19013KT 27/18 A2993 RMK A01 T02720178  RH  056%=      5-min Rain = 0
KTH1 121630Z 19010KT 27/18 A2993 RMK A01 T02730177  RH  056%=      5-min Rain = 0
KTH1 121631Z 21010KT 27/18 A2993 RMK A01 T02740177  RH  055%=      5-min Rain = 0
KTH1 121632Z 19009G14KT 27/18 A2993 RMK A01 T02740178  RH  056%=      5-min Rain = 0
KTH1 121633Z 19009G15KT 28/18 A2993 RMK A01 T02750176  RH  055%=      5-min Rain = 0
KTH1 121634Z 18012KT 28/18 A2993 RMK A01 T02750182  RH  057%=      5-min Rain = 0
KTH1 121635Z 18013KT 28/18 A2993 RMK A01 T02760176  RH  054%=      5-min Rain = 0
KTH1 121636Z 19012G17KT 28/18 A2993 RMK A01 T02760177  RH  055%=      5-min Rain = 0
KTH1 121637Z 19012KT 28/18 A2993 RMK A01 T02760177  RH  055%=      5-min Rain = 0
KTH1 121638Z 18008KT 28/18 A2993 RMK A01 T02760178  RH  055%=      5-min Rain = 0
KTH1 121639Z 20013KT 28/18 A2993 RMK A01 T02760179  RH  055%=      5-min Rain = 0
KTH1 121640Z 19011G16KT 28/18 A2993 RMK A01 T02760176  RH  054%=      5-min Rain = 0
KTH1 121641Z 19012KT 28/18 A2993 RMK A01 T02760179  RH  055%=      5-min Rain = 0
KTH1 121642Z 19009G14KT 28/18 A2993 RMK A01 T02770181  RH  056%=      5-min Rain = 0
KTH1 121643Z 19012KT 28/18 A2993 RMK A01 T02780178  RH  054%=      5-min Rain = 0
KTH1 121644Z 19008KT 28/18 A2993 RMK A01 T02780177  RH  054%=      5-min Rain = 0
KTH1 121645Z 19006KT 28/18 A2993 RMK A01 T02780183  RH  056%=      5-min Rain = 0
KTH1 121646Z 17007KT 28/18 A2993 RMK A01 T02800182  RH  055%=      5-min Rain = 0
KTH1 121647Z 18007G12KT 28/19 A2993 RMK A01 T02820187  RH  056%=      5-min Rain = 0
KTH1 121648Z 17011KT 28/18 A2993 RMK A01 T02830181  RH  054%=      5-min Rain = 0
KTH1 121649Z 17009G14KT 28/18 A2993 RMK A01 T02830182  RH  054%=      5-min Rain = 0
KTH1 121650Z 18008G13KT 28/18 A2993 RMK A01 T02820181  RH  054%=      5-min Rain = 0
KTH1 121651Z 18009KT 28/18 A2993 RMK A01 T02810183  RH  055%=      5-min Rain = 0
KTH1 121652Z 18008KT 28/18 A2993 RMK A01 T02820183  RH  055%=      5-min Rain = 0
KTH1 121653Z 17007KT 28/18 A2993 RMK A01 T02830184  RH  055%=      5-min Rain = 0
KTH1 121654Z 18009KT 29/19 A2993 RMK A01 T02850187  RH  055%=      5-min Rain = 0
KTH1 121655Z 16009G15KT 29/18 A2993 RMK A01 T02850184  RH  054%=      5-min Rain = 0
KTH1 121656Z 17010KT 29/18 A2993 RMK A01 T02860183  RH  054%=      5-min Rain = 0
KTH1 121657Z 18011G18KT 29/18 A2993 RMK A01 T02860182  RH  053%=      5-min Rain = 0
KTH1 121658Z 18010KT 28/18 A2993 RMK A01 T02840178  RH  053%=      5-min Rain = 0
KTH1 121659Z 18012KT 28/18 A2993 RMK A01 T02830181  RH  054%=      5-min Rain = 0
KTH1 121700Z 17007KT 28/18 A2993 RMK A01 T02830180  RH  054%=      5-min Rain = 0
KTH1 121701Z 17009KT 28/18 A2993 RMK A01 T02830183  RH  054%=      5-min Rain = 0
KTH1 121702Z 17010KT 28/18 A2993 RMK A01 T02840177  RH  052%=      5-min Rain = 0
KTH1 121703Z 17009KT 28/18 A2993 RMK A01 T02830178  RH  053%=      5-min Rain = 0
KTH1 121704Z 19007KT 28/18 A2993 RMK A01 T02820181  RH  054%=      5-min Rain = 0
KTH1 121705Z 17008G13KT 28/19 A2993 RMK A01 T02830186  RH  055%=      5-min Rain = 0
KTH1 121706Z 18011KT 29/18 A2993 RMK A01 T02860184  RH  054%=      5-min Rain = 0
KTH1 121707Z 18009KT 29/18 A2993 RMK A01 T02860180  RH  053%=      5-min Rain = 0
KTH1 121708Z 18005G10KT 29/18 A2993 RMK A01 T02850183  RH  054%=      5-min Rain = 0
KTH1 121709Z 18010KT 29/18 A2993 RMK A01 T02850184  RH  054%=      5-min Rain = 0
KTH1 121710Z 17011G18KT 29/18 A2993 RMK A01 T02850181  RH  053%=      5-min Rain = 0
KTH1 121711Z 17013KT 29/18 A2993 RMK A01 T02850180  RH  053%=      5-min Rain = 0
KTH1 121712Z 18011G16KT 28/18 A2993 RMK A01 T02840182  RH  054%=      5-min Rain = 0
KTH1 121713Z 19010G15KT 28/18 A2993 RMK A01 T02840179  RH  053%=      5-min Rain = 0
KTH1 121714Z 18009KT 28/18 A2993 RMK A01 T02840182  RH  054%=      5-min Rain = 0
KTH1 121715Z 19005KT 28/19 A2993 RMK A01 T02840186  RH  055%=      5-min Rain = 0
KTH1 121716Z 18006KT 29/19 A2993 RMK A01 T02860187  RH  055%=      5-min Rain = 0
KTH1 121717Z 19010KT 29/18 A2993 RMK A01 T02870183  RH  053%=      5-min Rain = 0
KTH1 121718Z 19011KT 29/19 A2993 RMK A01 T02880185  RH  054%=      5-min Rain = 0
KTH1 121719Z 18011KT 29/18 A2993 RMK A01 T02880182  RH  053%=      5-min Rain = 0
KTH1 121720Z 17008KT 29/18 A2993 RMK A01 T02870180  RH  052%=      5-min Rain = 0
KTH1 121721Z 18011KT 29/18 A2992 RMK A01 T02870182  RH  053%=      5-min Rain = 0
KTH1 121722Z 16014KT 29/18 A2993 RMK A01 T02860184  RH  054%=      5-min Rain = 0
KTH1 121723Z 16011KT 29/18 A2993 RMK A01 T02860180  RH  053%=      5-min Rain = 0
KTH1 121724Z 18011KT 29/18 A2993 RMK A01 T02860182  RH  053%=      5-min Rain = 0
KTH1 121725Z 18009KT 29/18 A2993 RMK A01 T02860182  RH  053%=      5-min Rain = 0
KTH1 121726Z 18010KT 29/18 A2992 RMK A01 T02860182  RH  053%=      5-min Rain = 0
KTH1 121727Z 20005KT 29/19 A2992 RMK A01 T02870189  RH  055%=      5-min Rain = 0
KTH1 121728Z 18007KT 29/19 A2992 RMK A01 T02890188  RH  054%=      5-min Rain = 0
KTH1 121729Z 17008KT 29/19 A2992 RMK A01 T02920188  RH  054%=      5-min Rain = 0
KTH1 121730Z 16010KT 29/19 A2992 RMK A01 T02930185  RH  052%=      5-min Rain = 0
KTH1 121731Z 16014KT 29/18 A2992 RMK A01 T02920183  RH  052%=      5-min Rain = 0
KTH1 121732Z 16013G18KT 29/18 A2992 RMK A01 T02910181  RH  052%=      5-min Rain = 0
KTH1 121733Z 17011G16KT 29/18 A2992 RMK A01 T02900183  RH  052%=      5-min Rain = 0
KTH1 121734Z 18010KT 29/19 A2992 RMK A01 T02900187  RH  054%=      5-min Rain = 0
KTH1 121735Z 18010KT 29/19 A2992 RMK A01 T02920186  RH  053%=      5-min Rain = 0
KTH1 121736Z 19009KT 29/19 A2992 RMK A01 T02930186  RH  053%=      5-min Rain = 0
KTH1 121737Z 18011KT 29/19 A2992 RMK A01 T02940186  RH  052%=      5-min Rain = 0
KTH1 121738Z 17014KT 29/18 A2992 RMK A01 T02940181  RH  051%=      5-min Rain = 0
KTH1 121739Z 16013KT 29/18 A2992 RMK A01 T02920179  RH  051%=      5-min Rain = 0
KTH1 121740Z 17011KT 29/18 A2992 RMK A01 T02900179  RH  051%=      5-min Rain = 0
KTH1 121741Z 18012G17KT 29/18 A2992 RMK A01 T02890181  RH  052%=      5-min Rain = 0
KTH1 121742Z 18012KT 29/18 A2992 RMK A01 T02890179  RH  051%=      5-min Rain = 0
KTH1 121743Z 19009G14KT 29/19 A2992 RMK A01 T02890186  RH  054%=      5-min Rain = 0
KTH1 121744Z 18009KT 29/19 A2992 RMK A01 T02910185  RH  053%=      5-min Rain = 0
KTH1 121745Z 18010G15KT 29/19 A2992 RMK A01 T02920185  RH  053%=      5-min Rain = 0
KTH1 121746Z 18013KT 29/18 A2992 RMK A01 T02930183  RH  052%=      5-min Rain = 0
KTH1 121747Z 18016KT 29/18 A2992 RMK A01 T02930181  RH  051%=      5-min Rain = 0
KTH1 121748Z 19011KT 29/18 A2992 RMK A01 T02930181  RH  051%=      5-min Rain = 0
KTH1 121749Z 18009KT 29/18 A2992 RMK A01 T02920183  RH  052%=      5-min Rain = 0
KTH1 121750Z 19010KT 29/18 A2991 RMK A01 T02920181  RH  051%=      5-min Rain = 0
KTH1 121751Z 17010KT 29/18 A2991 RMK A01 T02930184  RH  052%=      5-min Rain = 0
KTH1 121752Z 17010KT 29/18 A2991 RMK A01 T02930182  RH  051%=      5-min Rain = 0
KTH1 121753Z 16009KT 29/18 A2991 RMK A01 T02940184  RH  052%=      5-min Rain = 0
KTH1 121754Z 16007KT 30/19 A2991 RMK A01 T02950187  RH  052%=      5-min Rain = 0
KTH1 121755Z 19010KT 30/19 A2991 RMK A01 T02950186  RH  052%=      5-min Rain = 0
KTH1 121756Z 18008KT 30/19 A2991 RMK A01 T02970189  RH  052%=      5-min Rain = 0
KTH1 121757Z 18005KT 30/19 A2991 RMK A01 T02980193  RH  053%=      5-min Rain = 0
KTH1 121758Z 18008G14KT 30/19 A2991 RMK A01 T03000190  RH  052%=      5-min Rain = 0
KTH1 121759Z 19014KT 30/18 A2991 RMK A01 T03010183  RH  049%=      5-min Rain = 0
KTH1 121800Z 19009G14KT 30/19 A2991 RMK A01 T03000186  RH  050%=      5-min Rain = 0
KTH1 121801Z 20010KT 30/19 A2991 RMK A01 T02990185  RH  050%=      5-min Rain = 0
KTH1 121802Z 20008G13KT 30/18 A2991 RMK A01 T02980184  RH  050%=      5-min Rain = 0
KTH1 121803Z 20007KT 30/19 A2991 RMK A01 T02970192  RH  053%=      5-min Rain = 0
KTH1 121804Z 20007G13KT 30/19 A2991 RMK A01 T02990189  RH  052%=      5-min Rain = 0
KTH1 121805Z 18010KT 30/19 A2991 RMK A01 T03000191  RH  052%=      5-min Rain = 0
KTH1 121806Z 17007KT 30/19 A2991 RMK A01 T03010192  RH  052%=      5-min Rain = 0
KTH1 121807Z 18009KT 30/19 A2991 RMK A01 T03020188  RH  050%=      5-min Rain = 0
KTH1 121808Z 16008KT 30/19 A2991 RMK A01 T03020186  RH  050%=      5-min Rain = 0
KTH1 121809Z 18010KT 30/19 A2991 RMK A01 T03010192  RH  052%=      5-min Rain = 0
KTH1 121810Z 17010KT 30/19 A2991 RMK A01 T03020192  RH  052%=      5-min Rain = 0
KTH1 121811Z 17011G17KT 30/19 A2991 RMK A01 T03020187  RH  050%=      5-min Rain = 0
KTH1 121812Z 16011KT 30/19 A2991 RMK A01 T03010185  RH  050%=      5-min Rain = 0
KTH1 121813Z 16010KT 30/18 A2991 RMK A01 T02990184  RH  050%=      5-min Rain = 0
KTH1 121814Z 15006KT 30/18 A2991 RMK A01 T02970184  RH  051%=      5-min Rain = 0
KTH1 121815Z 18006G12KT 30/19 A2991 RMK A01 T02970190  RH  053%=      5-min Rain = 0
KTH1 121816Z 17009KT 30/19 A2991 RMK A01 T02990191  RH  052%=      5-min Rain = 0
KTH1 121817Z 18009KT 30/19 A2991 RMK A01 T03010190  RH  052%=      5-min Rain = 0
KTH1 121818Z 18007KT 30/19 A2991 RMK A01 T03020186  RH  050%=      5-min Rain = 0
KTH1 121819Z 19008KT 30/19 A2991 RMK A01 T03030192  RH  052%=      5-min Rain = 0
KTH1 121820Z 20009KT 30/19 A2991 RMK A01 T03040187  RH  050%=      5-min Rain = 0
KTH1 121821Z 18007KT 30/19 A299 RMK A01 T03030188  RH  050%=      5-min Rain = 0
KTH1 121822Z 16006KT 30/19 A299 RMK A01 T03030194  RH  052%=      5-min Rain = 0
KTH1 121823Z 15010G16KT 31/19 A299 RMK A01 T03050192  RH  051%=      5-min Rain = 0
KTH1 121824Z 16012KT 31/19 A299 RMK A01 T03050187  RH  049%=      5-min Rain = 0
KTH1 121825Z 18008KT 30/19 A299 RMK A01 T03040189  RH  050%=      5-min Rain = 0
KTH1 121826Z 19007KT 30/19 A299 RMK A01 T03030193  RH  052%=      5-min Rain = 0
KTH1 121827Z 18008KT 31/19 A299 RMK A01 T03050191  RH  051%=      5-min Rain = 0
KTH1 121828Z 18007KT 31/19 A299 RMK A01 T03060190  RH  050%=      5-min Rain = 0
KTH1 121829Z 16010G17KT 31/19 A299 RMK A01 T03060193  RH  051%=      5-min Rain = 0
KTH1 121830Z 18008KT 31/19 A299 RMK A01 T03070191  RH  050%=      5-min Rain = 0
KTH1 121831Z 17007G12KT 31/19 A299 RMK A01 T03070194  RH  051%=      5-min Rain = 0
KTH1 121832Z 18008KT 31/19 A299 RMK A01 T03090194  RH  051%=      5-min Rain = 0
KTH1 121833Z 17011KT 31/19 A299 RMK A01 T03090190  RH  049%=      5-min Rain = 0
KTH1 121834Z 20008KT 31/19 A299 RMK A01 T03080188  RH  049%=      5-min Rain = 0
KTH1 121835Z 21008KT 31/19 A299 RMK A01 T03070188  RH  049%=      5-min Rain = 0
KTH1 121836Z 19007KT 31/20 A299 RMK A01 T03060195  RH  051%=      5-min Rain = 0
KTH1 121837Z 16007KT 31/19 A299 RMK A01 T03070190  RH  050%=      5-min Rain = 0
KTH1 121838Z 14007KT 31/19 A299 RMK A01 T03070194  RH  051%=      5-min Rain = 0
KTH1 121839Z 16010KT 31/19 A299 RMK A01 T03090191  RH  050%=      5-min Rain = 0
KTH1 121840Z 15013G19KT 31/19 A299 RMK A01 T03090187  RH  048%=      5-min Rain = 0
KTH1 121841Z 14010KT 31/19 A299 RMK A01 T03080188  RH  049%=      5-min Rain = 0
KTH1 121842Z 15010G15KT 31/19 A299 RMK A01 T03080189  RH  049%=      5-min Rain = 0
KTH1 121843Z 17009G14KT 31/19 A299 RMK A01 T03080191  RH  050%=      5-min Rain = 0
KTH1 121844Z 15009G16KT 31/19 A299 RMK A01 T03080191  RH  050%=      5-min Rain = 0
KTH1 121845Z 15012G19KT 31/19 A299 RMK A01 T03090190  RH  049%=      5-min Rain = 0
KTH1 121846Z 17010G16KT 31/20 A299 RMK A01 T03100196  RH  051%=      5-min Rain = 0
KTH1 121847Z 17011G16KT 31/19 A299 RMK A01 T03110187  RH  048%=      5-min Rain = 0
KTH1 121848Z 15011KT 31/19 A299 RMK A01 T03100190  RH  049%=      5-min Rain = 0
KTH1 121849Z 17011G16KT 31/19 A299 RMK A01 T03090185  RH  048%=      5-min Rain = 0
KTH1 121850Z 17010KT 31/18 A299 RMK A01 T03080182  RH  047%=      5-min Rain = 0
KTH1 121851Z 17008KT 31/18 A299 RMK A01 T03050181  RH  048%=      5-min Rain = 0
KTH1 121852Z 16008G15KT 30/19 A2989 RMK A01 T03030185  RH  049%=      5-min Rain = 0
KTH1 121853Z 15007KT 30/19 A2989 RMK A01 T03040190  RH  051%=      5-min Rain = 0
KTH1 121854Z 17010KT 31/19 A2989 RMK A01 T03070190  RH  050%=      5-min Rain = 0
KTH1 121855Z 16009KT 31/19 A2989 RMK A01 T03080188  RH  049%=      5-min Rain = 0
KTH1 121856Z 16014KT 31/19 A2989 RMK A01 T03100187  RH  048%=      5-min Rain = 0
KTH1 121857Z 16008G13KT 31/19 A2989 RMK A01 T03090185  RH  048%=      5-min Rain = 0
KTH1 121858Z 17009KT 31/19 A2989 RMK A01 T03100192  RH  049%=      5-min Rain = 0
KTH1 121859Z 17010KT 31/19 A2989 RMK A01 T03110189  RH  048%=      5-min Rain = 0
KTH1 121900Z 15009KT 31/19 A2989 RMK A01 T03110190  RH  049%=      5-min Rain = 0
KTH1 121901Z 15008KT 31/19 A2989 RMK A01 T03110189  RH  048%=      5-min Rain = 0
KTH1 121902Z 16011G16KT 31/19 A2989 RMK A01 T03110192  RH  049%=      5-min Rain = 0
KTH1 121903Z 15012KT 31/19 A2989 RMK A01 T03120187  RH  047%=      5-min Rain = 0
KTH1 121904Z 17008G13KT 31/19 A2989 RMK A01 T03110189  RH  048%=      5-min Rain = 0
KTH1 121905Z 16010G15KT 31/19 A2989 RMK A01 T03110191  RH  049%=      5-min Rain = 0
KTH1 121906Z 18010G15KT 31/19 A2989 RMK A01 T03110189  RH  048%=      5-min Rain = 0
KTH1 121907Z 17008G15KT 31/19 A2989 RMK A01 T03120190  RH  048%=      5-min Rain = 0
KTH1 121908Z 16009G15KT 31/19 A2989 RMK A01 T03120191  RH  048%=      5-min Rain = 0
KTH1 121909Z 18011KT 31/19 A2989 RMK A01 T03140191  RH  048%=      5-min Rain = 0
KTH1 121910Z 17011G16KT 31/19 A2989 RMK A01 T03140186  RH  047%=      5-min Rain = 0
KTH1 121911Z 18012KT 31/18 A2989 RMK A01 T03140183  RH  046%=      5-min Rain = 0
KTH1 121912Z 17012KT 31/18 A2989 RMK A01 T03120181  RH  046%=      5-min Rain = 0
KTH1 121913Z 17011KT 31/18 A2989 RMK A01 T03100182  RH  046%=      5-min Rain = 0
KTH1 121914Z 16006G12KT 31/19 A2989 RMK A01 T03100187  RH  048%=      5-min Rain = 0
KTH1 121915Z 16011G16KT 31/19 A2989 RMK A01 T03110187  RH  048%=      5-min Rain = 0
KTH1 121916Z 18010KT 31/19 A2989 RMK A01 T03120188  RH  047%=      5-min Rain = 0
KTH1 121917Z 18010KT 31/18 A2989 RMK A01 T03130184  RH  046%=      5-min Rain = 0
KTH1 121918Z 16014G20KT 31/19 A2989 RMK A01 T03130186  RH  047%=      5-min Rain = 0
KTH1 121919Z 16012KT 31/18 A2989 RMK A01 T03130182  RH  046%=      5-min Rain = 0
KTH1 121920Z 16014KT 31/18 A2989 RMK A01 T03110182  RH  046%=      5-min Rain = 0
KTH1 121921Z 17013G18KT 31/18 A2989 RMK A01 T03110184  RH  047%=      5-min Rain = 0
KTH1 121922Z 16013KT 31/18 A2989 RMK A01 T03110182  RH  046%=      5-min Rain = 0
KTH1 121923Z 17008G14KT 31/18 A2989 RMK A01 T03100181  RH  046%=      5-min Rain = 0
KTH1 121924Z 19008KT 31/19 A2989 RMK A01 T03110187  RH  048%=      5-min Rain = 0
KTH1 121925Z 17008KT 31/19 A2989 RMK A01 T03120186  RH  047%=      5-min Rain = 0
KTH1 121926Z 15013KT 31/19 A2989 RMK A01 T03130187  RH  047%=      5-min Rain = 0
KTH1 121927Z 16009KT 31/18 A2989 RMK A01 T03140184  RH  046%=      5-min Rain = 0
KTH1 121928Z 16010KT 31/19 A2989 RMK A01 T03130187  RH  047%=      5-min Rain = 0
KTH1 121929Z 15010KT 31/18 A2989 RMK A01 T03130184  RH  046%=      5-min Rain = 0
KTH1 121930Z 18008KT 31/19 A2989 RMK A01 T03130188  RH  048%=      5-min Rain = 0
KTH1 121931Z 16007KT 31/19 A2989 RMK A01 T03130192  RH  049%=      5-min Rain = 0
KTH1 121932Z 18010KT 32/19 A2989 RMK A01 T03160192  RH  048%=      5-min Rain = 0
KTH1 121933Z 17009KT 32/19 A2989 RMK A01 T03170191  RH  047%=      5-min Rain = 0
KTH1 121934Z 18010G15KT 32/19 A2989 RMK A01 T03180190  RH  047%=      5-min Rain = 0
KTH1 121935Z 19009KT 32/19 A2989 RMK A01 T03180188  RH  046%=      5-min Rain = 0
KTH1 121936Z 18008G13KT 32/19 A2989 RMK A01 T03180187  RH  046%=      5-min Rain = 0
KTH1 121937Z 15010KT 32/19 A2989 RMK A01 T03170188  RH  046%=      5-min Rain = 0
KTH1 121938Z 16013G18KT 32/19 A2989 RMK A01 T03170185  RH  046%=      5-min Rain = 0
KTH1 121939Z 17011G16KT 32/19 A2989 RMK A01 T03170188  RH  047%=      5-min Rain = 0
KTH1 121940Z 17012KT 32/18 A2989 RMK A01 T03170183  RH  045%=      5-min Rain = 0
KTH1 121941Z 16009G14KT 32/18 A2989 RMK A01 T03170184  RH  045%=      5-min Rain = 0
KTH1 121942Z 15009G15KT 32/19 A2989 RMK A01 T03160187  RH  046%=      5-min Rain = 0
KTH1 121943Z 16007KT 32/19 A2989 RMK A01 T03160185  RH  046%=      5-min Rain = 0
KTH1 121944Z 16014G19KT 32/18 A2988 RMK A01 T03160184  RH  045%=      5-min Rain = 0
KTH1 121945Z 15011KT 32/19 A2989 RMK A01 T03170186  RH  046%=      5-min Rain = 0
KTH1 121946Z 17013KT 32/18 A2989 RMK A01 T03160182  RH  045%=      5-min Rain = 0
KTH1 121947Z 18009KT 32/19 A2989 RMK A01 T03160185  RH  046%=      5-min Rain = 0
KTH1 121948Z 17013G18KT 32/18 A2989 RMK A01 T03160183  RH  045%=      5-min Rain = 0
KTH1 121949Z 17007KT 32/19 A2989 RMK A01 T03150187  RH  047%=      5-min Rain = 0
KTH1 121950Z 17007G12KT 32/19 A2988 RMK A01 T03160189  RH  047%=      5-min Rain = 0
KTH1 121951Z 17011KT 32/19 A2988 RMK A01 T03170185  RH  045%=      5-min Rain = 0
KTH1 121952Z 17012G17KT 32/18 A2988 RMK A01 T03180184  RH  045%=      5-min Rain = 0
KTH1 121953Z 16011G16KT 32/19 A2988 RMK A01 T03180185  RH  045%=      5-min Rain = 0
KTH1 121954Z 15015KT 32/18 A2988 RMK A01 T03180183  RH  045%=      5-min Rain = 0
KTH1 121955Z 16011KT 32/18 A2988 RMK A01 T03170183  RH  045%=      5-min Rain = 0
KTH1 121956Z 16010KT 32/18 A2988 RMK A01 T03160184  RH  045%=      5-min Rain = 0
KTH1 121957Z 16011KT 32/18 A2988 RMK A01 T03160181  RH  045%=      5-min Rain = 0
KTH1 121958Z 15012G18KT 32/18 A2988 RMK A01 T03160182  RH  045%=      5-min Rain = 0
KTH1 121959Z 15007KT 32/18 A2988 RMK A01 T03160183  RH  045%=      5-min Rain = 0
KTH1 122000Z 17009KT 32/18 A2988 RMK A01 T03180181  RH  044%=      5-min Rain = 0
KTH1 122001Z 17011KT 32/18 A2988 RMK A01 T03180182  RH  044%=      5-min Rain = 0
KTH1 122002Z 17012KT 32/18 A2988 RMK A01 T03190181  RH  044%=      5-min Rain = 0
KTH1 122003Z 16009KT 32/19 A2988 RMK A01 T03190186  RH  045%=      5-min Rain = 0
KTH1 122004Z 16010G16KT 32/18 A2988 RMK A01 T03190182  RH  044%=      5-min Rain = 0
KTH1 122005Z 16011KT 32/18 A2988 RMK A01 T03190183  RH  045%=      5-min Rain = 0
KTH1 122006Z 15011KT 32/18 A2988 RMK A01 T03190182  RH  044%=      5-min Rain = 0
KTH1 122007Z 16008G13KT 32/19 A2988 RMK A01 T03190188  RH  046%=      5-min Rain = 0
KTH1 122008Z 15011KT 32/19 A2988 RMK A01 T03200191  RH  046%=      5-min Rain = 0
KTH1 122009Z 16011KT 32/19 A2988 RMK A01 T03220185  RH  044%=      5-min Rain = 0
KTH1 122010Z 16009KT 32/19 A2988 RMK A01 T03220187  RH  045%=      5-min Rain = 0
KTH1 122011Z 17010KT 32/19 A2988 RMK A01 T03220187  RH  045%=      5-min Rain = 0
KTH1 122012Z 15013G18KT 32/18 A2988 RMK A01 T03220183  RH  044%=      5-min Rain = 0
KTH1 122013Z 16013KT 32/18 A2988 RMK A01 T03200184  RH  044%=      5-min Rain = 0
KTH1 122014Z 16012KT 32/18 A2988 RMK A01 T03190181  RH  044%=      5-min Rain = 0
KTH1 122015Z 17009KT 32/19 A2988 RMK A01 T03190185  RH  045%=      5-min Rain = 0
KTH1 122016Z 16010KT 32/19 A2987 RMK A01 T03190186  RH  045%=      5-min Rain = 0
KTH1 122017Z 15011KT 32/19 A2987 RMK A01 T03200187  RH  045%=      5-min Rain = 0
KTH1 122018Z 17014G19KT 32/18 A2987 RMK A01 T03210183  RH  044%=      5-min Rain = 0
KTH1 122019Z 16015KT 32/18 A2987 RMK A01 T03210180  RH  043%=      5-min Rain = 0
KTH1 122020Z 16013KT 32/18 A2987 RMK A01 T03200181  RH  044%=      5-min Rain = 0
KTH1 122021Z 17014G19KT 32/18 A2987 RMK A01 T03190181  RH  044%=      5-min Rain = 0
KTH1 122022Z 18011KT 32/18 A2987 RMK A01 T03180177  RH  043%=      5-min Rain = 0
KTH1 122023Z 16008G13KT 32/18 A2987 RMK A01 T03170184  RH  045%=      5-min Rain = 0
KTH1 122024Z 14011KT 32/18 A2987 RMK A01 T03180183  RH  045%=      5-min Rain = 0
KTH1 122025Z 15009G14KT 32/19 A2987 RMK A01 T03190187  RH  046%=      5-min Rain = 0
KTH1 122026Z 16009KT 32/18 A2987 RMK A01 T03200182  RH  044%=      5-min Rain = 0
KTH1 122027Z 15011KT 32/18 A2987 RMK A01 T03200183  RH  044%=      5-min Rain = 0
KTH1 122028Z 15009KT 32/19 A2987 RMK A01 T03200185  RH  045%=      5-min Rain = 0
KTH1 122029Z 16008KT 32/19 A2987 RMK A01 T03200190  RH  046%=      5-min Rain = 0
KTH1 122030Z 17009KT 32/19 A2987 RMK A01 T03210185  RH  044%=      5-min Rain = 0
KTH1 122031Z 16009G14KT 32/19 A2987 RMK A01 T03220188  RH  045%=      5-min Rain = 0
KTH1 122032Z 18010KT 32/19 A2987 RMK A01 T03230186  RH  044%=      5-min Rain = 0
KTH1 122033Z 18009KT 32/19 A2987 RMK A01 T03240185  RH  044%=      5-min Rain = 0
KTH1 122034Z 16011G17KT 33/19 A2987 RMK A01 T03250188  RH  044%=      5-min Rain = 0
KTH1 122035Z 15011G16KT 33/19 A2987 RMK A01 T03250185  RH  044%=      5-min Rain = 0
KTH1 122036Z 15012G17KT 32/18 A2987 RMK A01 T03240184  RH  043%=      5-min Rain = 0
KTH1 122037Z 16011KT 32/19 A2987 RMK A01 T03230185  RH  044%=      5-min Rain = 0
KTH1 122038Z 17012G17KT 32/18 A2987 RMK A01 T03230182  RH  043%=      5-min Rain = 0
KTH1 122039Z 17008KT 32/18 A2987 RMK A01 T03220184  RH  044%=      5-min Rain = 0
KTH1 122040Z 17009G16KT 32/18 A2987 RMK A01 T03220183  RH  044%=      5-min Rain = 0
KTH1 122041Z 17010G17KT 32/18 A2987 RMK A01 T03220184  RH  044%=      5-min Rain = 0
KTH1 122042Z 17011KT 32/18 A2987 RMK A01 T03230181  RH  043%=      5-min Rain = 0
KTH1 122043Z 17008KT 32/18 A2987 RMK A01 T03230184  RH  044%=      5-min Rain = 0
KTH1 122044Z 18011KT 32/18 A2987 RMK A01 T03240183  RH  043%=      5-min Rain = 0
KTH1 122045Z 17011G18KT 32/18 A2987 RMK A01 T03240182  RH  043%=      5-min Rain = 0
KTH1 122046Z 17010G15KT 32/18 A2986 RMK A01 T03230184  RH  043%=      5-min Rain = 0
KTH1 122047Z 18011KT 32/18 A2986 RMK A01 T03240181  RH  043%=      5-min Rain = 0
KTH1 122048Z 18011KT 32/18 A2986 RMK A01 T03230181  RH  043%=      5-min Rain = 0
KTH1 122049Z 17013G18KT 32/18 A2986 RMK A01 T03240181  RH  043%=      5-min Rain = 0
KTH1 122050Z 18009KT 32/18 A2986 RMK A01 T03240184  RH  044%=      5-min Rain = 0
KTH1 122051Z 18008KT 33/19 A2986 RMK A01 T03250186  RH  044%=      5-min Rain = 0
KTH1 122052Z 16010G15KT 33/18 A2986 RMK A01 T03260184  RH  043%=      5-min Rain = 0
KTH1 122053Z 18009KT 33/19 A2986 RMK A01 T03270186  RH  043%=      5-min Rain = 0
KTH1 122054Z 16006KT 33/19 A2986 RMK A01 T03270188  RH  044%=      5-min Rain = 0
KTH1 122055Z 17013KT 33/18 A2986 RMK A01 T03290184  RH  042%=      5-min Rain = 0
KTH1 122056Z 17009KT 33/18 A2986 RMK A01 T03280181  RH  042%=      5-min Rain = 0
KTH1 122057Z 16008KT 33/18 A2986 RMK A01 T03260183  RH  043%=      5-min Rain = 0
KTH1 122058Z 16009KT 33/18 A2986 RMK A01 T03250182  RH  043%=      5-min Rain = 0
KTH1 122059Z 16011G18KT 33/18 A2986 RMK A01 T03250182  RH  043%=      5-min Rain = 0
KTH1 122100Z 16013KT 33/18 A2986 RMK A01 T03250184  RH  043%=      5-min Rain = 0
KTH1 122101Z 16012KT 33/18 A2986 RMK A01 T03250179  RH  042%=      5-min Rain = 0
KTH1 122102Z 14010KT 32/18 A2986 RMK A01 T03240182  RH  043%=      5-min Rain = 0
KTH1 122103Z 14011KT 32/18 A2985 RMK A01 T03240183  RH  043%=      5-min Rain = 0
KTH1 122104Z 13014G20KT 32/18 A2985 RMK A01 T03240182  RH  043%=      5-min Rain = 0
KTH1 122105Z 15013G19KT 32/18 A2985 RMK A01 T03240181  RH  043%=      5-min Rain = 0
KTH1 122106Z 17010G15KT 32/18 A2985 RMK A01 T03240182  RH  043%=      5-min Rain = 0
KTH1 122107Z 15009KT 33/18 A2986 RMK A01 T03250183  RH  043%=      5-min Rain = 0
KTH1 122108Z 14012KT 33/18 A2985 RMK A01 T03260180  RH  042%=      5-min Rain = 0
KTH1 122109Z 14014KT 33/18 A2985 RMK A01 T03250178  RH  042%=      5-min Rain = 0
KTH1 122110Z 15012G17KT 32/18 A2985 RMK A01 T03240182  RH  043%=      5-min Rain = 0
KTH1 122111Z 16013KT 33/18 A2985 RMK A01 T03250178  RH  042%=      5-min Rain = 0
KTH1 122112Z 16010KT 32/18 A2985 RMK A01 T03240180  RH  042%=      5-min Rain = 0
KTH1 122113Z 15010KT 32/18 A2985 RMK A01 T03240182  RH  043%=      5-min Rain = 0
KTH1 122114Z 16011KT 33/18 A2985 RMK A01 T03250182  RH  043%=      5-min Rain = 0
KTH1 122115Z 15009KT 33/18 A2985 RMK A01 T03250178  RH  042%=      5-min Rain = 0
KTH1 122116Z 18010G16KT 33/18 A2985 RMK A01 T03250183  RH  043%=      5-min Rain = 0
KTH1 122117Z 17012G17KT 33/18 A2985 RMK A01 T03260176  RH  041%=      5-min Rain = 0
KTH1 122118Z 18008KT 33/18 A2985 RMK A01 T03250180  RH  042%=      5-min Rain = 0
KTH1 122119Z 17008G13KT 33/18 A2985 RMK A01 T03260184  RH  043%=      5-min Rain = 0
KTH1 122120Z 15010G15KT 33/18 A2985 RMK A01 T03270179  RH  041%=      5-min Rain = 0
KTH1 122121Z 15008KT 33/18 A2985 RMK A01 T03260182  RH  042%=      5-min Rain = 0
KTH1 122122Z 15016KT 33/18 A2985 RMK A01 T03270182  RH  042%=      5-min Rain = 0
KTH1 122123Z 16013KT 33/18 A2985 RMK A01 T03270178  RH  041%=      5-min Rain = 0
KTH1 122124Z 15011KT 33/18 A2985 RMK A01 T03260176  RH  041%=      5-min Rain = 0
KTH1 122125Z 15013G18KT 33/18 A2985 RMK A01 T03250177  RH  041%=      5-min Rain = 0
KTH1 122126Z 16010G16KT 33/18 A2985 RMK A01 T03250179  RH  042%=      5-min Rain = 0
KTH1 122127Z 15012G19KT 33/18 A2985 RMK A01 T03250177  RH  041%=      5-min Rain = 0
KTH1 122128Z 15014KT 33/17 A2985 RMK A01 T03250174  RH  040%=      5-min Rain = 0
KTH1 122129Z 15009G14KT 33/18 A2985 RMK A01 T03250178  RH  042%=      5-min Rain = 0
KTH1 122130Z 16012KT 33/18 A2985 RMK A01 T03250178  RH  042%=      5-min Rain = 0
KTH1 122131Z 15012KT 33/17 A2985 RMK A01 T03260174  RH  040%=      5-min Rain = 0
KTH1 122132Z 15007KT 33/18 A2985 RMK A01 T03250178  RH  041%=      5-min Rain = 0
KTH1 122133Z 15010KT 33/18 A2985 RMK A01 T03260176  RH  041%=      5-min Rain = 0
KTH1 122134Z 15011G16KT 33/18 A2985 RMK A01 T03260178  RH  041%=      5-min Rain = 0
KTH1 122135Z 15012G18KT 33/17 A2985 RMK A01 T03270172  RH  040%=      5-min Rain = 0
KTH1 122136Z 15013KT 33/17 A2985 RMK A01 T03260174  RH  040%=      5-min Rain = 0
KTH1 122137Z 15011KT 33/17 A2985 RMK A01 T03250172  RH  040%=      5-min Rain = 0
KTH1 122138Z 14011KT 33/17 A2985 RMK A01 T03250174  RH  040%=      5-min Rain = 0
KTH1 122139Z 15014G20KT 33/17 A2985 RMK A01 T03260170  RH  039%=      5-min Rain = 0
KTH1 122140Z 14009G14KT 33/17 A2985 RMK A01 T03260174  RH  040%=      5-min Rain = 0
KTH1 122141Z 14014G21KT 33/17 A2985 RMK A01 T03260172  RH  040%=      5-min Rain = 0
KTH1 122142Z 15014G20KT 33/17 A2985 RMK A01 T03260172  RH  040%=      5-min Rain = 0
KTH1 122143Z 14012KT 33/17 A2985 RMK A01 T03250174  RH  040%=      5-min Rain = 0
KTH1 122144Z 14011G16KT 33/17 A2985 RMK A01 T03250172  RH  040%=      5-min Rain = 0
KTH1 122145Z 15013G18KT 33/17 A2985 RMK A01 T03260172  RH  040%=      5-min Rain = 0
KTH1 122146Z 15014KT 33/17 A2985 RMK A01 T03260171  RH  040%=      5-min Rain = 0
KTH1 122147Z 15012KT 33/17 A2985 RMK A01 T03250170  RH  040%=      5-min Rain = 0
KTH1 122148Z 16011KT 33/17 A2985 RMK A01 T03250170  RH  040%=      5-min Rain = 0
KTH1 122149Z 16013KT 32/17 A2985 RMK A01 T03240170  RH  040%=      5-min Rain = 0
KTH1 122150Z 16012KT 32/17 A2985 RMK A01 T03240167  RH  039%=      5-min Rain = 0
KTH1 122151Z 17010KT 32/17 A2985 RMK A01 T03230169  RH  040%=      5-min Rain = 0
KTH1 122152Z 15010G16KT 32/18 A2985 RMK A01 T03240176  RH  041%=      5-min Rain = 0
KTH1 122153Z 15012KT 33/18 A2985 RMK A01 T03250175  RH  041%=      5-min Rain = 0
KTH1 122154Z 16009KT 33/18 A2985 RMK A01 T03260175  RH  041%=      5-min Rain = 0
KTH1 122155Z 15010G15KT 33/18 A2985 RMK A01 T03260176  RH  041%=      5-min Rain = 0
KTH1 122156Z 18010G16KT 33/17 A2985 RMK A01 T03270173  RH  040%=      5-min Rain = 0
KTH1 122157Z 16010KT 33/17 A2985 RMK A01 T03270174  RH  040%=      5-min Rain = 0
KTH1 122158Z 16013KT 33/17 A2985 RMK A01 T03270171  RH  039%=      5-min Rain = 0
KTH1 122159Z 15014KT 33/17 A2985 RMK A01 T03250168  RH  039%=      5-min Rain = 0
KTH1 122200Z 15012G18KT 32/17 A2985 RMK A01 T03240168  RH  039%=      5-min Rain = 0
KTH1 122201Z 15012KT 32/17 A2985 RMK A01 T03240169  RH  040%=      5-min Rain = 0
KTH1 122202Z 15011KT 32/17 A2985 RMK A01 T03230170  RH  040%=      5-min Rain = 0
KTH1 122203Z 16011KT 32/17 A2985 RMK A01 T03240170  RH  040%=      5-min Rain = 0
KTH1 122204Z 15011KT 32/17 A2985 RMK A01 T03240171  RH  040%=      5-min Rain = 0
KTH1 122205Z 14013G18KT 33/17 A2985 RMK A01 T03250169  RH  039%=      5-min Rain = 0
KTH1 122206Z 14011G16KT 33/17 A2984 RMK A01 T03250171  RH  040%=      5-min Rain = 0
KTH1 122207Z 14013KT 33/17 A2984 RMK A01 T03250168  RH  039%=      5-min Rain = 0
KTH1 122208Z 14010KT 33/17 A2985 RMK A01 T03260169  RH  039%=      5-min Rain = 0
KTH1 122209Z 14011G16KT 33/17 A2985 RMK A01 T03260173  RH  040%=      5-min Rain = 0
KTH1 122210Z 14013KT 33/17 A2984 RMK A01 T03260168  RH  039%=      5-min Rain = 0
KTH1 122211Z 16013KT 33/17 A2985 RMK A01 T03260167  RH  039%=      5-min Rain = 0
KTH1 122212Z 15013KT 33/17 A2985 RMK A01 T03250166  RH  039%=      5-min Rain = 0
KTH1 122213Z 15010G15KT 33/17 A2985 RMK A01 T03250168  RH  039%=      5-min Rain = 0
KTH1 122214Z 15012G18KT 32/17 A2985 RMK A01 T03240170  RH  040%=      5-min Rain = 0
KTH1 122215Z 13010G15KT 32/17 A2985 RMK A01 T03240167  RH  039%=      5-min Rain = 0
KTH1 122216Z 15011KT 32/17 A2985 RMK A01 T03240172  RH  040%=      5-min Rain = 0
KTH1 122217Z 15013KT 33/17 A2984 RMK A01 T03250168  RH  039%=      5-min Rain = 0
KTH1 122218Z 15013G19KT 33/17 A2985 RMK A01 T03250169  RH  039%=      5-min Rain = 0
KTH1 122219Z 14013G18KT 32/17 A2984 RMK A01 T03240167  RH  039%=      5-min Rain = 0
KTH1 122220Z 14016G21KT 32/17 A2985 RMK A01 T03240169  RH  040%=      5-min Rain = 0
KTH1 122221Z 15011G16KT 32/17 A2985 RMK A01 T03240168  RH  039%=      5-min Rain = 0
KTH1 122222Z 16008KT 32/17 A2985 RMK A01 T03240170  RH  040%=      5-min Rain = 0
KTH1 122223Z 17014KT 32/17 A2985 RMK A01 T03240169  RH  040%=      5-min Rain = 0
KTH1 122224Z 14011KT 32/17 A2985 RMK A01 T03240170  RH  040%=      5-min Rain = 0
KTH1 122225Z 15012G18KT 32/17 A2985 RMK A01 T03240170  RH  040%=      5-min Rain = 0
KTH1 122226Z 15015KT 32/17 A2984 RMK A01 T03240167  RH  039%=      5-min Rain = 0
KTH1 122227Z 15015G20KT 32/16 A2984 RMK A01 T03230164  RH  038%=      5-min Rain = 0
KTH1 122228Z 15014KT 32/16 A2985 RMK A01 T03230163  RH  038%=      5-min Rain = 0
KTH1 122229Z 15013KT 32/16 A2985 RMK A01 T03220164  RH  039%=      5-min Rain = 0
KTH1 122230Z 14012KT 32/17 A2985 RMK A01 T03220166  RH  039%=      5-min Rain = 0
KTH1 122231Z 15007KT 32/17 A2985 RMK A01 T03220166  RH  039%=      5-min Rain = 0
KTH1 122232Z 14010G16KT 32/17 A2985 RMK A01 T03230172  RH  041%=      5-min Rain = 0
KTH1 122233Z 14012KT 32/17 A2984 RMK A01 T03240169  RH  040%=      5-min Rain = 0
KTH1 122234Z 14014G20KT 32/17 A2984 RMK A01 T03240168  RH  039%=      5-min Rain = 0
KTH1 122235Z 15015KT 32/16 A2984 RMK A01 T03240163  RH  038%=      5-min Rain = 0
KTH1 122236Z 15015G22KT 32/16 A2984 RMK A01 T03240162  RH  038%=      5-min Rain = 0
KTH1 122237Z 14016G22KT 32/16 A2984 RMK A01 T03230162  RH  038%=      5-min Rain = 0
KTH1 122238Z 15013G18KT 32/17 A2984 RMK A01 T03220165  RH  039%=      5-min Rain = 0
KTH1 122239Z 15013G19KT 32/16 A2984 RMK A01 T03220163  RH  039%=      5-min Rain = 0
KTH1 122240Z 15014KT 32/16 A2984 RMK A01 T03220162  RH  038%=      5-min Rain = 0
KTH1 122241Z 14015KT 32/16 A2984 RMK A01 T03220162  RH  038%=      5-min Rain = 0
KTH1 122242Z 15013G19KT 32/16 A2984 RMK A01 T03220163  RH  039%=      5-min Rain = 0
KTH1 122243Z 15011KT 32/17 A2984 RMK A01 T03220165  RH  039%=      5-min Rain = 0
KTH1 122244Z 16013KT 32/16 A2984 RMK A01 T03220163  RH  039%=      5-min Rain = 0
KTH1 122245Z 16013G20KT 32/16 A2984 RMK A01 T03220161  RH  038%=      5-min Rain = 0
KTH1 122246Z 16013KT 32/16 A2984 RMK A01 T03220162  RH  038%=      5-min Rain = 0
KTH1 122247Z 15015KT 32/16 A2984 RMK A01 T03220163  RH  039%=      5-min Rain = 0
KTH1 122248Z 15012KT 32/16 A2984 RMK A01 T03220163  RH  039%=      5-min Rain = 0
KTH1 122249Z 15011KT 32/16 A2984 RMK A01 T03220164  RH  039%=      5-min Rain = 0
KTH1 122250Z 16012G17KT 32/16 A2984 RMK A01 T03220164  RH  039%=      5-min Rain = 0
KTH1 122251Z 15011KT 32/17 A2984 RMK A01 T03230166  RH  039%=      5-min Rain = 0
KTH1 122252Z 15012KT 32/17 A2984 RMK A01 T03230166  RH  039%=      5-min Rain = 0
KTH1 122253Z 15013G18KT 32/16 A2984 RMK A01 T03220163  RH  038%=      5-min Rain = 0
KTH1 122254Z 15013G21KT 32/16 A2984 RMK A01 T03220163  RH  039%=      5-min Rain = 0
KTH1 122255Z 15013G19KT 32/17 A2984 RMK A01 T03220165  RH  039%=      5-min Rain = 0
KTH1 122256Z 14012KT 32/17 A2984 RMK A01 T03210165  RH  039%=      5-min Rain = 0
KTH1 122257Z 15011KT 32/17 A2984 RMK A01 T03210165  RH  039%=      5-min Rain = 0
KTH1 122258Z 14011KT 32/17 A2984 RMK A01 T03200168  RH  040%=      5-min Rain = 0
KTH1 122259Z 14013G18KT 32/17 A2984 RMK A01 T03200165  RH  039%=      5-min Rain = 0
KTH1 122300Z 14012KT 32/17 A2984 RMK A01 T03200168  RH  040%=      5-min Rain = 0
KTH1 122301Z 14012KT 32/16 A2984 RMK A01 T03200164  RH  039%=      5-min Rain = 0
KTH1 122302Z 15012KT 32/17 A2984 RMK A01 T03190165  RH  040%=      5-min Rain = 0
KTH1 122303Z 16013G18KT 32/16 A2984 RMK A01 T03170163  RH  039%=      5-min Rain = 0
KTH1 122304Z 15009KT 32/16 A2984 RMK A01 T03160164  RH  040%=      5-min Rain = 0
KTH1 122305Z 15011KT 32/16 A2984 RMK A01 T03150164  RH  040%=      5-min Rain = 0
KTH1 122306Z 14011KT 31/16 A2985 RMK A01 T03140162  RH  040%=      5-min Rain = 0
KTH1 122307Z 15012G17KT 31/16 A2985 RMK A01 T03120160  RH  040%=      5-min Rain = 0
KTH1 122308Z 15012KT 31/16 A2985 RMK A01 T03110161  RH  040%=      5-min Rain = 0
KTH1 122309Z 15009KT 31/16 A2985 RMK A01 T03100161  RH  041%=      5-min Rain = 0
KTH1 122310Z 15010KT 31/16 A2985 RMK A01 T03100164  RH  042%=      5-min Rain = 0
KTH1 122311Z 15010KT 31/16 A2985 RMK A01 T03090163  RH  041%=      5-min Rain = 0
KTH1 122312Z 15010KT 31/16 A2985 RMK A01 T03090160  RH  041%=      5-min Rain = 0
KTH1 122313Z 15010KT 31/16 A2985 RMK A01 T03100163  RH  041%=      5-min Rain = 0
KTH1 122314Z 14009KT 31/16 A2985 RMK A01 T03110161  RH  041%=      5-min Rain = 0
KTH1 122315Z 15011G17KT 31/17 A2985 RMK A01 T03120165  RH  041%=      5-min Rain = 0
KTH1 122316Z 15013KT 31/16 A2985 RMK A01 T03120162  RH  040%=      5-min Rain = 0
KTH1 122317Z 14010KT 31/16 A2985 RMK A01 T03130162  RH  040%=      5-min Rain = 0
KTH1 122318Z 14011G19KT 31/16 A2985 RMK A01 T03120164  RH  041%=      5-min Rain = 0
KTH1 122319Z 14013KT 31/16 A2985 RMK A01 T03120160  RH  040%=      5-min Rain = 0
KTH1 122320Z 15012G17KT 31/16 A2985 RMK A01 T03130159  RH  040%=      5-min Rain = 0
KTH1 122321Z 14011KT 31/16 A2985 RMK A01 T03130160  RH  040%=      5-min Rain = 0
KTH1 122322Z 15009KT 31/16 A2985 RMK A01 T03130163  RH  040%=      5-min Rain = 0
KTH1 122323Z 15009KT 31/16 A2985 RMK A01 T03130164  RH  041%=      5-min Rain = 0
KTH1 122324Z 14007KT 31/16 A2985 RMK A01 T03140164  RH  041%=      5-min Rain = 0
KTH1 122325Z 15008KT 31/17 A2985 RMK A01 T03130165  RH  041%=      5-min Rain = 0
KTH1 122326Z 14009G14KT 31/17 A2984 RMK A01 T03140165  RH  041%=      5-min Rain = 0
KTH1 122327Z 14008KT 31/17 A2984 RMK A01 T03140165  RH  041%=      5-min Rain = 0
KTH1 122328Z 14010KT 31/16 A2984 RMK A01 T03140164  RH  041%=      5-min Rain = 0
KTH1 122329Z 13012KT 31/16 A2984 RMK A01 T03140163  RH  040%=      5-min Rain = 0
KTH1 122330Z 14011KT 31/17 A2984 RMK A01 T03140165  RH  041%=      5-min Rain = 0
KTH1 122331Z 15012G17KT 31/16 A2984 RMK A01 T03140162  RH  040%=      5-min Rain = 0
KTH1 122332Z 14011KT 31/16 A2984 RMK A01 T03140161  RH  040%=      5-min Rain = 0
KTH1 122333Z 15010G16KT 31/16 A2985 RMK A01 T03130162  RH  040%=      5-min Rain = 0
KTH1 122334Z 15012KT 31/16 A2984 RMK A01 T03130162  RH  040%=      5-min Rain = 0
KTH1 122335Z 16014KT 31/16 A2985 RMK A01 T03130160  RH  040%=      5-min Rain = 0
KTH1 122336Z 16011KT 31/16 A2985 RMK A01 T03130159  RH  039%=      5-min Rain = 0
KTH1 122337Z 15013KT 31/16 A2984 RMK A01 T03130159  RH  039%=      5-min Rain = 0
KTH1 122338Z 15011G18KT 31/16 A2985 RMK A01 T03130161  RH  040%=      5-min Rain = 0
KTH1 122339Z 15014G19KT 31/16 A2985 RMK A01 T03130158  RH  039%=      5-min Rain = 0
KTH1 122340Z 15012G17KT 31/16 A2985 RMK A01 T03130159  RH  040%=      5-min Rain = 0
KTH1 122341Z 15012G18KT 31/16 A2985 RMK A01 T03120157  RH  039%=      5-min Rain = 0
KTH1 122342Z 15014KT 31/16 A2985 RMK A01 T03120157  RH  039%=      5-min Rain = 0
KTH1 122343Z 14011KT 31/16 A2985 RMK A01 T03120159  RH  040%=      5-min Rain = 0
KTH1 122344Z 15012G17KT 31/16 A2985 RMK A01 T03110159  RH  040%=      5-min Rain = 0
KTH1 122345Z 15012G18KT 31/16 A2985 RMK A01 T03110160  RH  040%=      5-min Rain = 0
KTH1 122346Z 15015G20KT 31/16 A2985 RMK A01 T03110158  RH  040%=      5-min Rain = 0
KTH1 122347Z 15013KT 31/16 A2985 RMK A01 T03110157  RH  039%=      5-min Rain = 0
KTH1 122348Z 14012KT 31/16 A2985 RMK A01 T03110156  RH  039%=      5-min Rain = 0
KTH1 122349Z 14008KT 31/16 A2985 RMK A01 T03110160  RH  040%=      5-min Rain = 0
KTH1 122350Z 14007KT 31/16 A2985 RMK A01 T03100162  RH  041%=      5-min Rain = 0
KTH1 122351Z 14012KT 31/16 A2985 RMK A01 T03110162  RH  041%=      5-min Rain = 0
KTH1 122352Z 15010KT 31/16 A2985 RMK A01 T03100159  RH  040%=      5-min Rain = 0
KTH1 122353Z 15010KT 31/16 A2985 RMK A01 T03100161  RH  041%=      5-min Rain = 0
KTH1 122354Z 14013KT 31/16 A2985 RMK A01 T03100159  RH  040%=      5-min Rain = 0
KTH1 122355Z 15009KT 31/16 A2985 RMK A01 T03090159  RH  040%=      5-min Rain = 0
KTH1 122356Z 15009KT 31/16 A2985 RMK A01 T03090161  RH  041%=      5-min Rain = 0
KTH1 122357Z 15011KT 31/16 A2985 RMK A01 T03090160  RH  041%=      5-min Rain = 0
KTH1 122358Z 15009KT 31/16 A2985 RMK A01 T03090162  RH  041%=      5-min Rain = 0
KTH1 122359Z 14010KT 31/16 A2984 RMK A01 T03090160  RH  041%=      5-min Rain = 0
KTH1 130000Z 14013KT 31/16 A2985 RMK A01 T03090161  RH  041%=      5-min Rain = 0
KTH1 130001Z 14010G16KT 31/16 A2984 RMK A01 T03080158  RH  040%=      5-min Rain = 0
KTH1 130002Z 15010KT 31/16 A2984 RMK A01 T03080160  RH  041%=      5-min Rain = 0
KTH1 130003Z 14009KT 31/16 A2984 RMK A01 T03080160  RH  041%=      5-min Rain = 0
KTH1 130004Z 15010G15KT 31/16 A2984 RMK A01 T03080161  RH  041%=      5-min Rain = 0
KTH1 130005Z 15010KT 31/16 A2984 RMK A01 T03080158  RH  040%=      5-min Rain = 0
KTH1 130006Z 14008KT 31/16 A2984 RMK A01 T03070160  RH  041%=      5-min Rain = 0
KTH1 130007Z 15010KT 31/16 A2985 RMK A01 T03070159  RH  041%=      5-min Rain = 0
KTH1 130008Z 14010KT 31/16 A2985 RMK A01 T03070159  RH  041%=      5-min Rain = 0
KTH1 130009Z 15007G12KT 31/16 A2985 RMK A01 T03070159  RH  041%=      5-min Rain = 0
KTH1 130010Z 15008G13KT 31/16 A2984 RMK A01 T03060160  RH  041%=      5-min Rain = 0
KTH1 130011Z 14008G13KT 31/16 A2984 RMK A01 T03060159  RH  041%=      5-min Rain = 0
KTH1 130012Z 14013KT 31/16 A2984 RMK A01 T03050159  RH  041%=      5-min Rain = 0
KTH1 130013Z 14013KT 31/16 A2984 RMK A01 T03050156  RH  041%=      5-min Rain = 0
KTH1 130014Z 14012KT 30/16 A2984 RMK A01 T03040157  RH  041%=      5-min Rain = 0
KTH1 130015Z 14011KT 30/16 A2984 RMK A01 T03040158  RH  041%=      5-min Rain = 0
KTH1 130016Z 14010KT 30/16 A2984 RMK A01 T03040159  RH  042%=      5-min Rain = 0
KTH1 130017Z 14013G18KT 30/16 A2984 RMK A01 T03030156  RH  041%=      5-min Rain = 0
KTH1 130018Z 14010KT 30/16 A2984 RMK A01 T03030158  RH  041%=      5-min Rain = 0
KTH1 130019Z 14011KT 30/16 A2985 RMK A01 T03030159  RH  042%=      5-min Rain = 0
KTH1 130020Z 14011KT 30/16 A2985 RMK A01 T03020159  RH  042%=      5-min Rain = 0
KTH1 130021Z 14008KT 30/16 A2985 RMK A01 T03020160  RH  042%=      5-min Rain = 0
KTH1 130022Z 14008KT 30/16 A2985 RMK A01 T03020161  RH  043%=      5-min Rain = 0
KTH1 130023Z 14009KT 30/16 A2985 RMK A01 T03010160  RH  043%=      5-min Rain = 0
KTH1 130024Z 14010KT 30/16 A2985 RMK A01 T03010161  RH  043%=      5-min Rain = 0
KTH1 130025Z 13008KT 30/16 A2985 RMK A01 T03010162  RH  043%=      5-min Rain = 0
KTH1 130026Z 15011KT 30/16 A2985 RMK A01 T03000162  RH  043%=      5-min Rain = 0
KTH1 130027Z 14013KT 30/16 A2985 RMK A01 T03000162  RH  043%=      5-min Rain = 0
KTH1 130028Z 15012KT 30/16 A2985 RMK A01 T02990162  RH  044%=      5-min Rain = 0
KTH1 130029Z 13012G18KT 30/16 A2985 RMK A01 T02990163  RH  044%=      5-min Rain = 0
KTH1 130030Z 13012G17KT 30/16 A2985 RMK A01 T02990163  RH  044%=      5-min Rain = 0
KTH1 130031Z 14010KT 30/17 A2985 RMK A01 T02990165  RH  044%=      5-min Rain = 0
KTH1 130032Z 14011KT 30/17 A2985 RMK A01 T02980166  RH  045%=      5-min Rain = 0
KTH1 130033Z 14011G16KT 30/17 A2985 RMK A01 T02980166  RH  045%=      5-min Rain = 0
KTH1 130034Z 14011G16KT 30/17 A2985 RMK A01 T02970167  RH  045%=      5-min Rain = 0
KTH1 130035Z 14012G17KT 30/17 A2985 RMK A01 T02960167  RH  046%=      5-min Rain = 0
KTH1 130036Z 14014KT 30/17 A2985 RMK A01 T02950165  RH  045%=      5-min Rain = 0
KTH1 130037Z 14009KT 30/17 A2985 RMK A01 T02950166  RH  046%=      5-min Rain = 0
KTH1 130038Z 14011KT 29/17 A2985 RMK A01 T02940167  RH  047%=      5-min Rain = 0
KTH1 130039Z 14011KT 29/17 A2985 RMK A01 T02920166  RH  046%=      5-min Rain = 0
KTH1 130040Z 14011KT 29/17 A2985 RMK A01 T02920166  RH  046%=      5-min Rain = 0
KTH1 130041Z 14010KT 29/17 A2985 RMK A01 T02910166  RH  047%=      5-min Rain = 0
KTH1 130042Z 14009KT 29/17 A2985 RMK A01 T02910167  RH  047%=      5-min Rain = 0
KTH1 130043Z 14010G15KT 29/17 A2985 RMK A01 T02900167  RH  047%=      5-min Rain = 0
KTH1 130044Z 14010G16KT 29/17 A2985 RMK A01 T02890166  RH  047%=      5-min Rain = 0
KTH1 130045Z 14009KT 29/17 A2985 RMK A01 T02890166  RH  048%=      5-min Rain = 0
KTH1 130046Z 14010KT 29/17 A2985 RMK A01 T02880166  RH  048%=      5-min Rain = 0
KTH1 130047Z 14011KT 29/17 A2985 RMK A01 T02880167  RH  048%=      5-min Rain = 0
KTH1 130048Z 14011KT 29/17 A2985 RMK A01 T02870165  RH  048%=      5-min Rain = 0
KTH1 130049Z 15009KT 29/17 A2985 RMK A01 T02870166  RH  048%=      5-min Rain = 0
KTH1 130050Z 14009KT 29/17 A2986 RMK A01 T02870167  RH  048%=      5-min Rain = 0
KTH1 130051Z 14010KT 29/17 A2986 RMK A01 T02860167  RH  048%=      5-min Rain = 0
KTH1 130052Z 15011KT 29/17 A2986 RMK A01 T02860166  RH  048%=      5-min Rain = 0
KTH1 130053Z 15008G13KT 29/17 A2986 RMK A01 T02860166  RH  048%=      5-min Rain = 0
KTH1 130054Z 14008KT 29/17 A2986 RMK A01 T02860166  RH  048%=      5-min Rain = 0
KTH1 130055Z 15007KT 29/17 A2986 RMK A01 T02860166  RH  048%=      5-min Rain = 0
KTH1 130056Z 15007KT 29/17 A2987 RMK A01 T02860167  RH  049%=      5-min Rain = 0
KTH1 130057Z 15008KT 29/17 A2987 RMK A01 T02850167  RH  049%=      5-min Rain = 0
KTH1 130058Z 16008KT 29/17 A2987 RMK A01 T02850167  RH  049%=      5-min Rain = 0
KTH1 130059Z 15007KT 29/17 A2987 RMK A01 T02850167  RH  049%=      5-min Rain = 0
KTH1 130100Z 15008KT 28/17 A2987 RMK A01 T02840167  RH  049%=      5-min Rain = 0
KTH1 130101Z 15008KT 28/17 A2987 RMK A01 T02840167  RH  049%=      5-min Rain = 0
KTH1 130102Z 15007KT 28/17 A2987 RMK A01 T02840167  RH  049%=      5-min Rain = 0
KTH1 130103Z 15009KT 28/17 A2988 RMK A01 T02840168  RH  049%=      5-min Rain = 0
KTH1 130104Z 15008KT 28/17 A2988 RMK A01 T02830168  RH  049%=      5-min Rain = 0
KTH1 130105Z 15008KT 28/17 A2988 RMK A01 T02840168  RH  050%=      5-min Rain = 0
KTH1 130106Z 15008KT 28/17 A2988 RMK A01 T02830168  RH  050%=      5-min Rain = 0
KTH1 130107Z 15007KT 28/17 A2988 RMK A01 T02820168  RH  050%=      5-min Rain = 0
KTH1 130108Z 15008KT 28/17 A2988 RMK A01 T02820169  RH  050%=      5-min Rain = 0
KTH1 130109Z 15007KT 28/17 A2988 RMK A01 T02820169  RH  050%=      5-min Rain = 0
KTH1 130110Z 15008KT 28/17 A2988 RMK A01 T02810168  RH  050%=      5-min Rain = 0
KTH1 130111Z 15008KT 28/17 A2988 RMK A01 T02800168  RH  050%=      5-min Rain = 0
KTH1 130112Z 15007KT 28/17 A2988 RMK A01 T02800169  RH  051%=      5-min Rain = 0
KTH1 130113Z 15008KT 28/17 A2988 RMK A01 T02800168  RH  051%=      5-min Rain = 0
KTH1 130114Z 16008KT 28/17 A2988 RMK A01 T02790168  RH  051%=      5-min Rain = 0
KTH1 130115Z 15007KT 28/17 A2988 RMK A01 T02790168  RH  051%=      5-min Rain = 0
KTH1 130116Z 15007KT 28/17 A2988 RMK A01 T02780168  RH  051%=      5-min Rain = 0
KTH1 130117Z 15007KT 28/17 A2988 RMK A01 T02780168  RH  051%=      5-min Rain = 0
KTH1 130118Z 15008KT 28/17 A2988 RMK A01 T02770168  RH  051%=      5-min Rain = 0
KTH1 130119Z 15008KT 28/17 A2988 RMK A01 T02770168  RH  051%=      5-min Rain = 0
KTH1 130120Z 14007KT 28/17 A2988 RMK A01 T02770168  RH  052%=      5-min Rain = 0
KTH1 130121Z 15008KT 28/17 A2988 RMK A01 T02760168  RH  052%=      5-min Rain = 0
KTH1 130122Z 14006KT 28/17 A2988 RMK A01 T02760168  RH  052%=      5-min Rain = 0
KTH1 130123Z 15008KT 28/17 A2988 RMK A01 T02750167  RH  052%=      5-min Rain = 0
KTH1 130124Z 15007KT 28/17 A2988 RMK A01 T02750168  RH  052%=      5-min Rain = 0
KTH1 130125Z 15006KT 28/17 A2988 RMK A01 T02750167  RH  052%=      5-min Rain = 0
KTH1 130126Z 14008KT 28/17 A2988 RMK A01 T02750167  RH  052%=      5-min Rain = 0
KTH1 130127Z 14008KT 28/17 A2988 RMK A01 T02750168  RH  052%=      5-min Rain = 0
KTH1 130128Z 14008KT 27/17 A2988 RMK A01 T02740168  RH  052%=      5-min Rain = 0
KTH1 130129Z 14008KT 27/17 A2988 RMK A01 T02730167  RH  052%=      5-min Rain = 0
KTH1 130130Z 14008KT 27/17 A2988 RMK A01 T02730167  RH  052%=      5-min Rain = 0
KTH1 130131Z 14009KT 27/17 A2988 RMK A01 T02730167  RH  053%=      5-min Rain = 0
KTH1 130132Z 14009KT 27/17 A2988 RMK A01 T02730167  RH  053%=      5-min Rain = 0
KTH1 130133Z 14008KT 27/17 A2988 RMK A01 T02720167  RH  053%=      5-min Rain = 0
KTH1 130134Z 14008KT 27/17 A2988 RMK A01 T02720167  RH  053%=      5-min Rain = 0
KTH1 130135Z 14008KT 27/17 A2988 RMK A01 T02720167  RH  053%=      5-min Rain = 0
KTH1 130136Z 14010KT 27/17 A2988 RMK A01 T02720167  RH  053%=      5-min Rain = 0
KTH1 130137Z 14008KT 27/17 A2988 RMK A01 T02710167  RH  053%=      5-min Rain = 0
KTH1 130138Z 14008KT 27/17 A2988 RMK A01 T02710167  RH  053%=      5-min Rain = 0
KTH1 130139Z 14008KT 27/17 A2988 RMK A01 T02710167  RH  053%=      5-min Rain = 0
KTH1 130140Z 14009KT 27/17 A2988 RMK A01 T02700166  RH  053%=      5-min Rain = 0
KTH1 130141Z 14008KT 27/17 A2988 RMK A01 T02700166  RH  053%=      5-min Rain = 0
KTH1 130142Z 14007KT 27/17 A2988 RMK A01 T02700166  RH  053%=      5-min Rain = 0
KTH1 130143Z 14008KT 27/17 A2988 RMK A01 T02700167  RH  053%=      5-min Rain = 0
KTH1 130144Z 14008KT 27/17 A2989 RMK A01 T02700167  RH  053%=      5-min Rain = 0
KTH1 130145Z 14007KT 27/17 A2989 RMK A01 T02690166  RH  053%=      5-min Rain = 0
KTH1 130146Z 14008KT 27/17 A2989 RMK A01 T02690167  RH  053%=      5-min Rain = 0
KTH1 130147Z 14008KT 27/17 A2989 RMK A01 T02680167  RH  054%=      5-min Rain = 0
KTH1 130148Z 14008KT 27/17 A2989 RMK A01 T02680166  RH  054%=      5-min Rain = 0
KTH1 130149Z 14007KT 27/17 A2989 RMK A01 T02680166  RH  054%=      5-min Rain = 0
KTH1 130150Z 14009KT 27/17 A2989 RMK A01 T02670166  RH  054%=      5-min Rain = 0
KTH1 130151Z 14008KT 27/17 A2989 RMK A01 T02670166  RH  054%=      5-min Rain = 0
KTH1 130152Z 14008KT 27/17 A2989 RMK A01 T02680167  RH  054%=      5-min Rain = 0
KTH1 130153Z 14007KT 27/17 A2989 RMK A01 T02670166  RH  054%=      5-min Rain = 0
KTH1 130154Z 14006KT 27/17 A2989 RMK A01 T02660166  RH  054%=      5-min Rain = 0
KTH1 130155Z 14008KT 27/17 A2989 RMK A01 T02650166  RH  055%=      5-min Rain = 0
KTH1 130156Z 14008KT 27/17 A2989 RMK A01 T02650165  RH  054%=      5-min Rain = 0
KTH1 130157Z 14007KT 27/17 A2989 RMK A01 T02650166  RH  055%=      5-min Rain = 0
KTH1 130158Z 14008KT 26/17 A2989 RMK A01 T02640166  RH  055%=      5-min Rain = 0
KTH1 130159Z 14007KT 26/17 A2989 RMK A01 T02640166  RH  055%=      5-min Rain = 0
KTH1 130200Z 14008KT 26/17 A2989 RMK A01 T02630166  RH  055%=      5-min Rain = 0
KTH1 130201Z 14008KT 26/17 A2989 RMK A01 T02630166  RH  055%=      5-min Rain = 0
KTH1 130202Z 14007KT 26/17 A2989 RMK A01 T02620166  RH  055%=      5-min Rain = 0
KTH1 130203Z 14007KT 26/17 A2989 RMK A01 T02620166  RH  055%=      5-min Rain = 0
KTH1 130204Z 14008KT 26/17 A2989 RMK A01 T02620166  RH  056%=      5-min Rain = 0
KTH1 130205Z 14009KT 26/17 A2989 RMK A01 T02610166  RH  056%=      5-min Rain = 0
KTH1 130206Z 14008KT 26/17 A2989 RMK A01 T02610166  RH  056%=      5-min Rain = 0
KTH1 130207Z 13008KT 26/17 A2989 RMK A01 T02610166  RH  056%=      5-min Rain = 0
KTH1 130208Z 14008KT 26/17 A2989 RMK A01 T02600166  RH  056%=      5-min Rain = 0
KTH1 130209Z 14008KT 26/17 A2989 RMK A01 T02600166  RH  056%=      5-min Rain = 0
KTH1 130210Z 13006KT 26/17 A2989 RMK A01 T02600165  RH  056%=      5-min Rain = 0
KTH1 130211Z 14007KT 26/17 A2989 RMK A01 T02590166  RH  056%=      5-min Rain = 0
KTH1 130212Z 14008KT 26/17 A2989 RMK A01 T02590165  RH  056%=      5-min Rain = 0
KTH1 130213Z 14007KT 26/17 A2989 RMK A01 T02590165  RH  056%=      5-min Rain = 0
KTH1 130214Z 14008KT 26/17 A2989 RMK A01 T02590166  RH  056%=      5-min Rain = 0
KTH1 130215Z 14008KT 26/17 A2989 RMK A01 T02590165  RH  056%=      5-min Rain = 0
KTH1 130216Z 14007KT 26/17 A2989 RMK A01 T02590165  RH  056%=      5-min Rain = 0
KTH1 130217Z 14007KT 26/17 A2989 RMK A01 T02580165  RH  056%=      5-min Rain = 0
KTH1 130218Z 14007KT 26/17 A2989 RMK A01 T02580165  RH  056%=      5-min Rain = 0
KTH1 130219Z 14007KT 26/17 A2989 RMK A01 T02580165  RH  057%=      5-min Rain = 0
KTH1 130220Z 14008KT 26/17 A2989 RMK A01 T02580165  RH  057%=      5-min Rain = 0
KTH1 130221Z 14007KT 26/17 A2989 RMK A01 T02570165  RH  057%=      5-min Rain = 0
KTH1 130222Z 14006KT 26/17 A2989 RMK A01 T02570166  RH  057%=      5-min Rain = 0
KTH1 130223Z 14008KT 26/17 A2989 RMK A01 T02560166  RH  057%=      5-min Rain = 0
KTH1 130224Z 14008KT 26/17 A2989 RMK A01 T02560165  RH  057%=      5-min Rain = 0
KTH1 130225Z 13007KT 26/17 A2989 RMK A01 T02560165  RH  057%=      5-min Rain = 0
KTH1 130226Z 13007KT 26/17 A2989 RMK A01 T02560166  RH  057%=      5-min Rain = 0
KTH1 130227Z 13008KT 26/17 A2989 RMK A01 T02560166  RH  057%=      5-min Rain = 0
KTH1 130228Z 14007KT 26/17 A2989 RMK A01 T02550165  RH  057%=      5-min Rain = 0
KTH1 130229Z 14009KT 26/17 A2989 RMK A01 T02550166  RH  058%=      5-min Rain = 0
KTH1 130230Z 14008KT 26/17 A2989 RMK A01 T02550165  RH  057%=      5-min Rain = 0
KTH1 130231Z 14008KT 26/17 A2989 RMK A01 T02550165  RH  057%=      5-min Rain = 0
KTH1 130232Z 13008KT 26/17 A2989 RMK A01 T02550165  RH  058%=      5-min Rain = 0
KTH1 130233Z 14007KT 26/17 A2989 RMK A01 T02550166  RH  058%=      5-min Rain = 0
KTH1 130234Z 14008KT 25/17 A2989 RMK A01 T02540166  RH  058%=      5-min Rain = 0
KTH1 130235Z 13008KT 25/17 A2989 RMK A01 T02540166  RH  058%=      5-min Rain = 0
KTH1 130236Z 13007KT 25/17 A2989 RMK A01 T02530166  RH  058%=      5-min Rain = 0
KTH1 130237Z 13008KT 25/17 A2989 RMK A01 T02530166  RH  058%=      5-min Rain = 0
KTH1 130238Z 13008KT 25/17 A2989 RMK A01 T02530166  RH  058%=      5-min Rain = 0
KTH1 130239Z 13007KT 25/17 A2989 RMK A01 T02520166  RH  059%=      5-min Rain = 0
KTH1 130240Z 13009KT 25/17 A2989 RMK A01 T02520166  RH  059%=      5-min Rain = 0
KTH1 130241Z 13007KT 25/17 A2989 RMK A01 T02520166  RH  059%=      5-min Rain = 0
KTH1 130242Z 13007KT 25/17 A2989 RMK A01 T02520166  RH  059%=      5-min Rain = 0
KTH1 130243Z 13009KT 25/17 A2989 RMK A01 T02520166  RH  059%=      5-min Rain = 0
KTH1 130244Z 13009KT 25/17 A2989 RMK A01 T02520166  RH  059%=      5-min Rain = 0
KTH1 130245Z 13010KT 25/17 A2989 RMK A01 T02520166  RH  059%=      5-min Rain = 0
KTH1 130246Z 13009KT 25/17 A2989 RMK A01 T02520166  RH  059%=      5-min Rain = 0
KTH1 130247Z 12010G16KT 25/17 A2989 RMK A01 T02520166  RH  059%=      5-min Rain = 0
KTH1 130248Z 13010KT 25/17 A2989 RMK A01 T02530166  RH  059%=      5-min Rain = 0
KTH1 130249Z 13010KT 25/17 A2989 RMK A01 T02530166  RH  059%=      5-min Rain = 0
KTH1 130250Z 13010KT 25/17 A2989 RMK A01 T02530167  RH  059%=      5-min Rain = 0
KTH1 130251Z 13009KT 25/17 A2989 RMK A01 T02540168  RH  059%=      5-min Rain = 0
KTH1 130252Z 13010KT 25/17 A2989 RMK A01 T02530167  RH  059%=      5-min Rain = 0
KTH1 130253Z 13008KT 25/17 A2989 RMK A01 T02530167  RH  059%=      5-min Rain = 0
KTH1 130254Z 13010KT 25/17 A2989 RMK A01 T02520167  RH  059%=      5-min Rain = 0
KTH1 130255Z 13010KT 25/17 A2989 RMK A01 T02520167  RH  059%=      5-min Rain = 0
KTH1 130256Z 13011KT 25/17 A2988 RMK A01 T02520167  RH  059%=      5-min Rain = 0
KTH1 130257Z 13011KT 25/17 A2988 RMK A01 T02520167  RH  059%=      5-min Rain = 0
KTH1 130258Z 13010KT 25/17 A2988 RMK A01 T02520167  RH  059%=      5-min Rain = 0
KTH1 130259Z 12011KT 25/17 A2988 RMK A01 T02520167  RH  059%=      5-min Rain = 0
KTH1 130300Z 13009KT 25/17 A2988 RMK A01 T02520167  RH  059%=      5-min Rain = 0
KTH1 130301Z 13010KT 25/17 A2988 RMK A01 T02530167  RH  059%=      5-min Rain = 0
KTH1 130302Z 13011KT 25/17 A2988 RMK A01 T02530167  RH  059%=      5-min Rain = 0
KTH1 130303Z 13011KT 25/17 A2988 RMK A01 T02530167  RH  059%=      5-min Rain = 0
KTH1 130304Z 13009KT 25/17 A2989 RMK A01 T02540167  RH  059%=      5-min Rain = 0
KTH1 130305Z 13010KT 25/17 A2989 RMK A01 T02540167  RH  059%=      5-min Rain = 0
KTH1 130306Z 14010KT 25/17 A2989 RMK A01 T02540167  RH  059%=      5-min Rain = 0
KTH1 130307Z 14008KT 25/17 A2989 RMK A01 T02540167  RH  059%=      5-min Rain = 0
KTH1 130308Z 14010KT 25/17 A2989 RMK A01 T02540167  RH  058%=      5-min Rain = 0
KTH1 130309Z 14008G14KT 26/17 A2989 RMK A01 T02550167  RH  058%=      5-min Rain = 0
KTH1 130310Z 14007KT 26/17 A2989 RMK A01 T02550167  RH  058%=      5-min Rain = 0
KTH1 130311Z 14009KT 26/17 A2989 RMK A01 T02560168  RH  058%=      5-min Rain = 0
KTH1 130312Z 14008KT 26/17 A299 RMK A01 T02550167  RH  058%=      5-min Rain = 0
KTH1 130313Z 14009KT 26/17 A299 RMK A01 T02550167  RH  058%=      5-min Rain = 0
KTH1 130314Z 14009G14KT 26/17 A299 RMK A01 T02560167  RH  058%=      5-min Rain = 0
KTH1 130315Z 14007KT 26/17 A299 RMK A01 T02560167  RH  058%=      5-min Rain = 0
KTH1 130316Z 14009KT 26/17 A299 RMK A01 T02550168  RH  058%=      5-min Rain = 0
KTH1 130317Z 14009KT 26/17 A299 RMK A01 T02550168  RH  058%=      5-min Rain = 0
KTH1 130318Z 14008KT 26/17 A299 RMK A01 T02550168  RH  058%=      5-min Rain = 0
KTH1 130319Z 15009KT 26/17 A299 RMK A01 T02550167  RH  058%=      5-min Rain = 0
KTH1 130320Z 14007KT 26/17 A2991 RMK A01 T02550167  RH  058%=      5-min Rain = 0
KTH1 130321Z 14008KT 26/17 A2991 RMK A01 T02550168  RH  058%=      5-min Rain = 0
KTH1 130322Z 14006KT 26/17 A2991 RMK A01 T02550168  RH  059%=      5-min Rain = 0
KTH1 130323Z 14009KT 25/17 A2991 RMK A01 T02540168  RH  059%=      5-min Rain = 0
KTH1 130324Z 14010KT 25/17 A2991 RMK A01 T02540167  RH  059%=      5-min Rain = 0
KTH1 130325Z 14009KT 25/17 A299 RMK A01 T02540167  RH  059%=      5-min Rain = 0
KTH1 130326Z 15008KT 26/17 A2991 RMK A01 T02550167  RH  058%=      5-min Rain = 0
KTH1 130327Z 14011KT 26/17 A2991 RMK A01 T02550167  RH  059%=      5-min Rain = 0
KTH1 130328Z 14011KT 26/17 A2991 RMK A01 T02550167  RH  058%=      5-min Rain = 0
KTH1 130329Z 15010KT 26/17 A2991 RMK A01 T02560167  RH  058%=      5-min Rain = 0
KTH1 130330Z 14011G17KT 26/17 A2991 RMK A01 T02560167  RH  058%=      5-min Rain = 0
KTH1 130331Z 14011G16KT 26/17 A2991 RMK A01 T02570167  RH  058%=      5-min Rain = 0
KTH1 130332Z 15008G13KT 26/17 A2991 RMK A01 T02570168  RH  058%=      5-min Rain = 0
KTH1 130333Z 15009KT 26/17 A2991 RMK A01 T02580168  RH  058%=      5-min Rain = 0
KTH1 130334Z 15010KT 26/17 A2991 RMK A01 T02570168  RH  058%=      5-min Rain = 0
KTH1 130335Z 14009KT 26/17 A2991 RMK A01 T02570168  RH  058%=      5-min Rain = 0
KTH1 130336Z 14010KT 26/17 A2991 RMK A01 T02570168  RH  058%=      5-min Rain = 0
KTH1 130337Z 14012KT 26/17 A2991 RMK A01 T02570168  RH  058%=      5-min Rain = 0
KTH1 130338Z 14009KT 26/17 A2991 RMK A01 T02580168  RH  058%=      5-min Rain = 0
KTH1 130339Z 15010KT 26/17 A2991 RMK A01 T02580168  RH  058%=      5-min Rain = 0
KTH1 130340Z 15009KT 26/17 A2991 RMK A01 T02580168  RH  057%=      5-min Rain = 0
KTH1 130341Z 14009KT 26/17 A2991 RMK A01 T02580168  RH  058%=      5-min Rain = 0
KTH1 130342Z 14009KT 26/17 A2991 RMK A01 T02580169  RH  058%=      5-min Rain = 0
KTH1 130343Z 14009KT 26/17 A2992 RMK A01 T02580169  RH  058%=      5-min Rain = 0
KTH1 130344Z 15009KT 26/17 A2992 RMK A01 T02570169  RH  058%=      5-min Rain = 0
KTH1 130345Z 14011G16KT 26/17 A2992 RMK A01 T02570169  RH  058%=      5-min Rain = 0
KTH1 130346Z 15011KT 26/17 A2992 RMK A01 T02560169  RH  058%=      5-min Rain = 0
KTH1 130347Z 15010G16KT 26/17 A2992 RMK A01 T02560168  RH  058%=      5-min Rain = 0
KTH1 130348Z 15010G18KT 26/17 A2992 RMK A01 T02560168  RH  058%=      5-min Rain = 0
KTH1 130349Z 15011KT 26/17 A2992 RMK A01 T02560168  RH  058%=      5-min Rain = 0
KTH1 130350Z 15009KT 26/17 A2992 RMK A01 T02570168  RH  058%=      5-min Rain = 0
KTH1 130351Z 14009KT 26/17 A2992 RMK A01 T02570168  RH  058%=      5-min Rain = 0
KTH1 130352Z 15010KT 26/17 A2992 RMK A01 T02560169  RH  058%=      5-min Rain = 0
KTH1 130353Z 15008KT 26/17 A2992 RMK A01 T02560168  RH  058%=      5-min Rain = 0
KTH1 130354Z 14008KT 26/17 A2992 RMK A01 T02560169  RH  059%=      5-min Rain = 0
KTH1 130355Z 14006KT 26/17 A2992 RMK A01 T02550169  RH  059%=      5-min Rain = 0
KTH1 130356Z 15010G15KT 26/17 A2992 RMK A01 T02550168  RH  059%=      5-min Rain = 0
KTH1 130357Z 14009G14KT 26/17 A2992 RMK A01 T02550169  RH  059%=      5-min Rain = 0
KTH1 130358Z 14009G14KT 26/17 A2992 RMK A01 T02550169  RH  059%=      5-min Rain = 0
KTH1 130359Z 15010G15KT 26/17 A2992 RMK A01 T02550169  RH  059%=      5-min Rain = 0
KTH1 130400Z 16010G16KT 26/17 A2992 RMK A01 T02550168  RH  059%=      5-min Rain = 0
KTH1 130401Z 14010KT 26/17 A2992 RMK A01 T02550168  RH  059%=      5-min Rain = 0
KTH1 130402Z 14010KT 26/17 A2992 RMK A01 T02550168  RH  059%=      5-min Rain = 0
KTH1 130403Z 14010KT 26/17 A2992 RMK A01 T02550169  RH  059%=      5-min Rain = 0
KTH1 130404Z 14010KT 26/17 A2992 RMK A01 T02550169  RH  059%=      5-min Rain = 0
KTH1 130405Z 14010KT 26/17 A2992 RMK A01 T02550169  RH  059%=      5-min Rain = 0
KTH1 130406Z 14010KT 25/17 A2992 RMK A01 T02540169  RH  059%=      5-min Rain = 0
KTH1 130407Z 14009KT 25/17 A2992 RMK A01 T02540169  RH  059%=      5-min Rain = 0
KTH1 130408Z 15008KT 25/17 A2992 RMK A01 T02540169  RH  059%=      5-min Rain = 0
KTH1 130409Z 15009KT 25/17 A2992 RMK A01 T02540169  RH  059%=      5-min Rain = 0
KTH1 130410Z 15009KT 25/17 A2992 RMK A01 T02530169  RH  060%=      5-min Rain = 0
KTH1 130411Z 14008KT 25/17 A2992 RMK A01 T02530169  RH  060%=      5-min Rain = 0
KTH1 130412Z 15010KT 25/17 A2992 RMK A01 T02520169  RH  060%=      5-min Rain = 0
KTH1 130413Z 15009KT 25/17 A2992 RMK A01 T02520168  RH  060%=      5-min Rain = 0
KTH1 130414Z 15008G13KT 25/17 A2992 RMK A01 T02520169  RH  060%=      5-min Rain = 0
KTH1 130415Z 15009KT 25/17 A2992 RMK A01 T02510169  RH  060%=      5-min Rain = 0
KTH1 130416Z 14011KT 25/17 A2992 RMK A01 T02510169  RH  060%=      5-min Rain = 0
KTH1 130417Z 15010KT 25/17 A2992 RMK A01 T02510168  RH  060%=      5-min Rain = 0
KTH1 130418Z 15011G16KT 25/17 A2992 RMK A01 T02510168  RH  060%=      5-min Rain = 0
KTH1 130419Z 14009KT 25/17 A2992 RMK A01 T02520168  RH  060%=      5-min Rain = 0
KTH1 130420Z 15008KT 25/17 A2992 RMK A01 T02520169  RH  060%=      5-min Rain = 0
KTH1 130421Z 14010KT 25/17 A2992 RMK A01 T02520169  RH  060%=      5-min Rain = 0
KTH1 130422Z 14010G15KT 25/17 A2992 RMK A01 T02510169  RH  060%=      5-min Rain = 0
KTH1 130423Z 15011KT 25/17 A2992 RMK A01 T02510169  RH  060%=      5-min Rain = 0
KTH1 130424Z 14011KT 25/17 A2992 RMK A01 T02510169  RH  060%=      5-min Rain = 0
KTH1 130425Z 15011G16KT 25/17 A2992 RMK A01 T02510169  RH  060%=      5-min Rain = 0
KTH1 130426Z 14012KT 25/17 A2992 RMK A01 T02510168  RH  060%=      5-min Rain = 0
KTH1 130427Z 14011KT 25/17 A2992 RMK A01 T02510168  RH  060%=      5-min Rain = 0
KTH1 130428Z 14010KT 25/17 A2992 RMK A01 T02520169  RH  060%=      5-min Rain = 0
KTH1 130429Z 14011KT 25/17 A2992 RMK A01 T02510169  RH  060%=      5-min Rain = 0
KTH1 130430Z 14009KT 25/17 A2992 RMK A01 T02510169  RH  060%=      5-min Rain = 0
KTH1 130431Z 14011KT 25/17 A2992 RMK A01 T02510169  RH  061%=      5-min Rain = 0
KTH1 130432Z 14008KT 25/17 A2992 RMK A01 T02500169  RH  061%=      5-min Rain = 0
KTH1 130433Z 14010G15KT 25/17 A2992 RMK A01 T02500169  RH  061%=      5-min Rain = 0
KTH1 130434Z 14009KT 25/17 A2992 RMK A01 T02490169  RH  061%=      5-min Rain = 0
KTH1 130435Z 14011KT 25/17 A2991 RMK A01 T02490169  RH  061%=      5-min Rain = 0
KTH1 130436Z 15010G15KT 25/17 A2991 RMK A01 T02490169  RH  061%=      5-min Rain = 0
KTH1 130437Z 14011KT 25/17 A2991 RMK A01 T02490169  RH  061%=      5-min Rain = 0
KTH1 130438Z 15010KT 25/17 A2991 RMK A01 T02490169  RH  061%=      5-min Rain = 0
KTH1 130439Z 15011KT 25/17 A2991 RMK A01 T02490169  RH  061%=      5-min Rain = 0
KTH1 130440Z 15010KT 25/17 A2991 RMK A01 T02490169  RH  061%=      5-min Rain = 0
KTH1 130441Z 14009KT 25/17 A2991 RMK A01 T02490169  RH  061%=      5-min Rain = 0
KTH1 130442Z 14010KT 25/17 A2991 RMK A01 T02490169  RH  061%=      5-min Rain = 0
KTH1 130443Z 15010KT 25/17 A2992 RMK A01 T02490169  RH  061%=      5-min Rain = 0
KTH1 130444Z 15010KT 25/17 A2992 RMK A01 T02490169  RH  061%=      5-min Rain = 0
KTH1 130445Z 15009KT 25/17 A2992 RMK A01 T02490169  RH  061%=      5-min Rain = 0
KTH1 130446Z 15011KT 25/17 A2992 RMK A01 T02490169  RH  061%=      5-min Rain = 0
KTH1 130447Z 15012KT 25/17 A2992 RMK A01 T02490169  RH  061%=      5-min Rain = 0
KTH1 130448Z 15010G16KT 25/17 A2992 RMK A01 T02500169  RH  061%=      5-min Rain = 0
KTH1 130449Z 15010KT 25/17 A2992 RMK A01 T02500169  RH  061%=      5-min Rain = 0
KTH1 130450Z 15011KT 25/17 A2992 RMK A01 T02500170  RH  061%=      5-min Rain = 0
KTH1 130451Z 15010KT 25/17 A2992 RMK A01 T02500169  RH  061%=      5-min Rain = 0
KTH1 130452Z 15011KT 25/17 A2992 RMK A01 T02500170  RH  061%=      5-min Rain = 0
KTH1 130453Z 15009KT 25/17 A2992 RMK A01 T02490169  RH  061%=      5-min Rain = 0
KTH1 130454Z 15011KT 25/17 A2991 RMK A01 T02490169  RH  061%=      5-min Rain = 0
KTH1 130455Z 15012KT 25/17 A2991 RMK A01 T02490170  RH  061%=      5-min Rain = 0
KTH1 130456Z 15013KT 25/17 A2991 RMK A01 T02490169  RH  061%=      5-min Rain = 0
KTH1 130457Z 15011G16KT 25/17 A2991 RMK A01 T02490169  RH  061%=      5-min Rain = 0
KTH1 130458Z 15012G17KT 25/17 A2991 RMK A01 T02500169  RH  061%=      5-min Rain = 0
KTH1 130459Z 15012G17KT 25/17 A2991 RMK A01 T02500169  RH  061%=      5-min Rain = 0

Page generated in 0.0782 seconds.